<?xml version="1.0" encoding="UTF-8" standalone="no" ?>
<gpx xmlns="http://www.topografix.com/GPX/1/1" xmlns:xsi="http://www.w3.org/2001/XMLSchema-instance" xsi:schemaLocation="http://www.topografix.com/GPX/1/1 http://www.topografix.com/GPX/1/1/gpx.xsd" version="1.1" creator="VisuGPX - https://www.visugpx.com">
  <metadata>
    <name>La roche blanche </name>
  </metadata>
  <trk>
    <name><![CDATA[La roche blanche _1]]></name>
    <trkseg>
      <trkpt lat="45.70235" lon="3.13844">
        <ele>421.6</ele>
        <time>2021-11-06T17:56:47.642Z</time>
      </trkpt>
      <trkpt lat="45.70236" lon="3.13792">
        <ele>423.7</ele>
        <time>2021-11-06T17:57:05.496Z</time>
      </trkpt>
      <trkpt lat="45.70328" lon="3.13604">
        <ele>433.7</ele>
      </trkpt>
      <trkpt lat="45.70394" lon="3.13403">
        <ele>444.2</ele>
      </trkpt>
      <trkpt lat="45.7046" lon="3.13211">
        <ele>453.5</ele>
      </trkpt>
      <trkpt lat="45.70475" lon="3.12981">
        <ele>462.8</ele>
      </trkpt>
      <trkpt lat="45.70606" lon="3.12821">
        <ele>473.4</ele>
        <time>2021-11-06T17:57:10.011Z</time>
      </trkpt>
      <trkpt lat="45.70711" lon="3.12626">
        <ele>489</ele>
        <time>2021-11-06T17:57:14.561Z</time>
      </trkpt>
      <trkpt lat="45.70713" lon="3.12624">
        <ele>489.1</ele>
        <time>2021-11-06T17:30:50.000Z</time>
      </trkpt>
      <trkpt lat="45.70713" lon="3.12624">
        <ele>489.1</ele>
        <time>2021-11-06T17:30:50.000Z</time>
      </trkpt>
      <trkpt lat="45.70713" lon="3.12624">
        <ele>489.1</ele>
        <time>2021-11-06T17:30:50.000Z</time>
      </trkpt>
      <trkpt lat="45.70707" lon="3.12623">
        <ele>489.5</ele>
        <time>2021-11-06T17:30:50.001Z</time>
      </trkpt>
      <trkpt lat="45.70598" lon="3.12657">
        <ele>493.5</ele>
        <time>2021-11-06T17:30:50.025Z</time>
      </trkpt>
      <trkpt lat="45.70568" lon="3.12673">
        <ele>493.7</ele>
        <time>2021-11-06T17:30:50.055Z</time>
      </trkpt>
      <trkpt lat="45.70518" lon="3.12688">
        <ele>493.5</ele>
        <time>2021-11-06T17:30:50.095Z</time>
      </trkpt>
      <trkpt lat="45.70413" lon="3.12692">
        <ele>497.2</ele>
        <time>2021-11-06T17:30:50.156Z</time>
      </trkpt>
      <trkpt lat="45.70383" lon="3.12706">
        <ele>498.5</ele>
        <time>2021-11-06T17:30:50.223Z</time>
      </trkpt>
      <trkpt lat="45.70356" lon="3.12722">
        <ele>499</ele>
        <time>2021-11-06T17:30:50.296Z</time>
      </trkpt>
      <trkpt lat="45.70289" lon="3.12755">
        <ele>503.2</ele>
        <time>2021-11-06T17:30:50.384Z</time>
      </trkpt>
      <trkpt lat="45.7028" lon="3.12756">
        <ele>504.2</ele>
        <time>2021-11-06T17:30:50.473Z</time>
      </trkpt>
      <trkpt lat="45.70275" lon="3.12753">
        <ele>505.5</ele>
        <time>2021-11-06T17:30:50.563Z</time>
      </trkpt>
      <trkpt lat="45.70273" lon="3.12746">
        <ele>507.1</ele>
        <time>2021-11-06T17:30:50.654Z</time>
      </trkpt>
      <trkpt lat="45.70276" lon="3.1274">
        <ele>508</ele>
        <time>2021-11-06T17:30:50.747Z</time>
      </trkpt>
      <trkpt lat="45.70324" lon="3.12674">
        <ele>514.1</ele>
        <time>2021-11-06T17:30:50.853Z</time>
      </trkpt>
      <trkpt lat="45.70342" lon="3.12655">
        <ele>514.8</ele>
        <time>2021-11-06T17:30:50.963Z</time>
      </trkpt>
      <trkpt lat="45.70358" lon="3.12647">
        <ele>514.4</ele>
        <time>2021-11-06T17:30:51.077Z</time>
      </trkpt>
      <trkpt lat="45.70485" lon="3.12546">
        <ele>525.1</ele>
        <time>2021-11-06T17:30:51.220Z</time>
      </trkpt>
      <trkpt lat="45.70498" lon="3.12539">
        <ele>524.9</ele>
        <time>2021-11-06T17:30:51.366Z</time>
      </trkpt>
      <trkpt lat="45.70551" lon="3.12501">
        <ele>523.4</ele>
        <time>2021-11-06T17:30:51.523Z</time>
      </trkpt>
      <trkpt lat="45.70569" lon="3.12477">
        <ele>523.5</ele>
        <time>2021-11-06T17:30:51.685Z</time>
      </trkpt>
      <trkpt lat="45.70584" lon="3.12447">
        <ele>524.6</ele>
        <time>2021-11-06T17:30:51.853Z</time>
      </trkpt>
      <trkpt lat="45.70612" lon="3.12368">
        <ele>527.1</ele>
        <time>2021-11-06T17:30:52.033Z</time>
      </trkpt>
      <trkpt lat="45.70622" lon="3.12326">
        <ele>528.3</ele>
        <time>2021-11-06T17:30:52.219Z</time>
      </trkpt>
      <trkpt lat="45.70626" lon="3.12298">
        <ele>530.1</ele>
        <time>2021-11-06T17:30:52.409Z</time>
      </trkpt>
      <trkpt lat="45.70639" lon="3.12242">
        <ele>531.6</ele>
        <time>2021-11-06T17:30:52.607Z</time>
      </trkpt>
      <trkpt lat="45.70641" lon="3.12119">
        <ele>534.2</ele>
        <time>2021-11-06T17:30:52.823Z</time>
      </trkpt>
      <trkpt lat="45.70643" lon="3.12111">
        <ele>533.4</ele>
        <time>2021-11-06T17:30:53.040Z</time>
      </trkpt>
      <trkpt lat="45.70648" lon="3.12106">
        <ele>532.4</ele>
        <time>2021-11-06T17:30:53.258Z</time>
      </trkpt>
      <trkpt lat="45.7073" lon="3.12067">
        <ele>523.1</ele>
        <time>2021-11-06T17:30:53.493Z</time>
      </trkpt>
      <trkpt lat="45.70739" lon="3.12068">
        <ele>521.6</ele>
        <time>2021-11-06T17:30:53.730Z</time>
      </trkpt>
      <trkpt lat="45.70743" lon="3.12065">
        <ele>520.6</ele>
        <time>2021-11-06T17:30:53.968Z</time>
      </trkpt>
      <trkpt lat="45.70742" lon="3.1206">
        <ele>520.2</ele>
        <time>2021-11-06T17:30:54.207Z</time>
      </trkpt>
      <trkpt lat="45.70711" lon="3.1203">
        <ele>519.4</ele>
        <time>2021-11-06T17:30:54.453Z</time>
      </trkpt>
      <trkpt lat="45.70669" lon="3.11983">
        <ele>517.7</ele>
        <time>2021-11-06T17:30:54.710Z</time>
      </trkpt>
      <trkpt lat="45.70648" lon="3.11954">
        <ele>514.5</ele>
        <time>2021-11-06T17:30:54.973Z</time>
      </trkpt>
      <trkpt lat="45.70605" lon="3.11915">
        <ele>509.2</ele>
        <time>2021-11-06T17:30:55.246Z</time>
      </trkpt>
      <trkpt lat="45.7054" lon="3.1187">
        <ele>504.3</ele>
        <time>2021-11-06T17:30:55.533Z</time>
      </trkpt>
      <trkpt lat="45.70483" lon="3.11812">
        <ele>499.1</ele>
        <time>2021-11-06T17:30:55.834Z</time>
      </trkpt>
      <trkpt lat="45.7047" lon="3.11803">
        <ele>498.7</ele>
        <time>2021-11-06T17:30:56.138Z</time>
      </trkpt>
      <trkpt lat="45.70451" lon="3.11796">
        <ele>496.8</ele>
        <time>2021-11-06T17:30:56.446Z</time>
      </trkpt>
      <trkpt lat="45.70406" lon="3.11791">
        <ele>491.1</ele>
        <time>2021-11-06T17:30:56.763Z</time>
      </trkpt>
      <trkpt lat="45.7031" lon="3.11767">
        <ele>481.4</ele>
        <time>2021-11-06T17:30:57.100Z</time>
      </trkpt>
      <trkpt lat="45.70272" lon="3.11749">
        <ele>479.8</ele>
        <time>2021-11-06T17:30:57.445Z</time>
      </trkpt>
      <trkpt lat="45.70245" lon="3.11741">
        <ele>478.6</ele>
        <time>2021-11-06T17:30:57.795Z</time>
      </trkpt>
      <trkpt lat="45.70186" lon="3.1171">
        <ele>470.5</ele>
        <time>2021-11-06T17:30:58.158Z</time>
      </trkpt>
      <trkpt lat="45.70168" lon="3.1171">
        <ele>469.8</ele>
        <time>2021-11-06T17:30:58.525Z</time>
      </trkpt>
      <trkpt lat="45.70117" lon="3.11726">
        <ele>466.9</ele>
        <time>2021-11-06T17:30:58.902Z</time>
      </trkpt>
      <trkpt lat="45.70095" lon="3.11728">
        <ele>463.8</ele>
        <time>2021-11-06T17:30:59.283Z</time>
      </trkpt>
      <trkpt lat="45.70075" lon="3.11734">
        <ele>461.8</ele>
        <time>2021-11-06T17:30:59.668Z</time>
      </trkpt>
      <trkpt lat="45.70019" lon="3.11732">
        <ele>457.3</ele>
        <time>2021-11-06T17:31:00.065Z</time>
      </trkpt>
      <trkpt lat="45.69937" lon="3.11759">
        <ele>451</ele>
        <time>2021-11-06T17:31:00.479Z</time>
      </trkpt>
      <trkpt lat="45.69911" lon="3.1177">
        <ele>449.8</ele>
        <time>2021-11-06T17:31:00.898Z</time>
      </trkpt>
      <trkpt lat="45.69899" lon="3.11772">
        <ele>449.4</ele>
        <time>2021-11-06T17:31:01.319Z</time>
      </trkpt>
      <trkpt lat="45.69886" lon="3.1177">
        <ele>448.9</ele>
        <time>2021-11-06T17:31:01.743Z</time>
      </trkpt>
      <trkpt lat="45.69876" lon="3.11775">
        <ele>448.6</ele>
        <time>2021-11-06T17:31:02.169Z</time>
      </trkpt>
      <trkpt lat="45.69852" lon="3.11802">
        <ele>447.4</ele>
        <time>2021-11-06T17:31:02.601Z</time>
      </trkpt>
      <trkpt lat="45.69838" lon="3.11815">
        <ele>446.3</ele>
        <time>2021-11-06T17:31:03.037Z</time>
      </trkpt>
      <trkpt lat="45.69831" lon="3.11846">
        <ele>445.4</ele>
        <time>2021-11-06T17:31:03.477Z</time>
      </trkpt>
      <trkpt lat="45.6982" lon="3.11869">
        <ele>444.2</ele>
        <time>2021-11-06T17:31:03.921Z</time>
      </trkpt>
      <trkpt lat="45.6982" lon="3.1188">
        <ele>444.4</ele>
        <time>2021-11-06T17:31:04.367Z</time>
      </trkpt>
      <trkpt lat="45.6981" lon="3.119">
        <ele>443.8</ele>
        <time>2021-11-06T17:31:04.816Z</time>
      </trkpt>
      <trkpt lat="45.69803" lon="3.11905">
        <ele>443.3</ele>
        <time>2021-11-06T17:31:05.267Z</time>
      </trkpt>
      <trkpt lat="45.69786" lon="3.11908">
        <ele>442.4</ele>
        <time>2021-11-06T17:31:05.721Z</time>
      </trkpt>
      <trkpt lat="45.69754" lon="3.119">
        <ele>441.1</ele>
        <time>2021-11-06T17:31:06.182Z</time>
      </trkpt>
      <trkpt lat="45.69732" lon="3.11903">
        <ele>440.4</ele>
        <time>2021-11-06T17:31:06.647Z</time>
      </trkpt>
      <trkpt lat="45.69709" lon="3.11898">
        <ele>439.5</ele>
        <time>2021-11-06T17:31:07.117Z</time>
      </trkpt>
      <trkpt lat="45.69659" lon="3.11905">
        <ele>437.6</ele>
        <time>2021-11-06T17:31:07.597Z</time>
      </trkpt>
      <trkpt lat="45.69649" lon="3.1191">
        <ele>436.9</ele>
        <time>2021-11-06T17:31:08.079Z</time>
      </trkpt>
      <trkpt lat="45.69607" lon="3.11941">
        <ele>439.4</ele>
        <time>2021-11-06T17:31:08.570Z</time>
      </trkpt>
      <trkpt lat="45.69561" lon="3.1195">
        <ele>447.9</ele>
        <time>2021-11-06T17:31:09.071Z</time>
      </trkpt>
      <trkpt lat="45.69505" lon="3.11954">
        <ele>458.1</ele>
        <time>2021-11-06T17:31:09.583Z</time>
      </trkpt>
      <trkpt lat="45.69491" lon="3.1196">
        <ele>460.6</ele>
        <time>2021-11-06T17:31:10.098Z</time>
      </trkpt>
      <trkpt lat="45.694" lon="3.11982">
        <ele>475</ele>
        <time>2021-11-06T17:31:10.631Z</time>
      </trkpt>
      <trkpt lat="45.69354" lon="3.11984">
        <ele>481</ele>
        <time>2021-11-06T17:31:11.173Z</time>
      </trkpt>
      <trkpt lat="45.69038" lon="3.12141">
        <ele>523.5</ele>
        <time>2021-11-06T17:31:11.782Z</time>
      </trkpt>
      <trkpt lat="45.69009" lon="3.12167">
        <ele>527.7</ele>
        <time>2021-11-06T17:31:12.398Z</time>
      </trkpt>
      <trkpt lat="45.68987" lon="3.12183">
        <ele>530.7</ele>
        <time>2021-11-06T17:31:13.019Z</time>
      </trkpt>
      <trkpt lat="45.68979" lon="3.12192">
        <ele>532</ele>
        <time>2021-11-06T17:31:13.642Z</time>
      </trkpt>
      <trkpt lat="45.68948" lon="3.12208">
        <ele>536.6</ele>
        <time>2021-11-06T17:31:14.272Z</time>
      </trkpt>
      <trkpt lat="45.68925" lon="3.12247">
        <ele>540.6</ele>
        <time>2021-11-06T17:31:14.909Z</time>
      </trkpt>
      <trkpt lat="45.68915" lon="3.12253">
        <ele>542.2</ele>
        <time>2021-11-06T17:31:15.548Z</time>
      </trkpt>
      <trkpt lat="45.68903" lon="3.12266">
        <ele>543.7</ele>
        <time>2021-11-06T17:31:16.190Z</time>
      </trkpt>
      <trkpt lat="45.68888" lon="3.12276">
        <ele>545.2</ele>
        <time>2021-11-06T17:31:16.835Z</time>
      </trkpt>
      <trkpt lat="45.68859" lon="3.12282">
        <ele>548.2</ele>
        <time>2021-11-06T17:31:17.486Z</time>
      </trkpt>
      <trkpt lat="45.68838" lon="3.12282">
        <ele>550.5</ele>
        <time>2021-11-06T17:31:18.141Z</time>
      </trkpt>
      <trkpt lat="45.68814" lon="3.12288">
        <ele>553.5</ele>
        <time>2021-11-06T17:31:18.801Z</time>
      </trkpt>
      <trkpt lat="45.68811" lon="3.12291">
        <ele>553.8</ele>
        <time>2021-11-06T17:31:19.462Z</time>
      </trkpt>
      <trkpt lat="45.68806" lon="3.12288">
        <ele>554.6</ele>
        <time>2021-11-06T17:31:20.124Z</time>
      </trkpt>
      <trkpt lat="45.68809" lon="3.12271">
        <ele>554.5</ele>
        <time>2021-11-06T17:31:20.789Z</time>
      </trkpt>
      <trkpt lat="45.68796" lon="3.12241">
        <ele>556</ele>
        <time>2021-11-06T17:31:21.458Z</time>
      </trkpt>
      <trkpt lat="45.68779" lon="3.12223">
        <ele>557.9</ele>
        <time>2021-11-06T17:31:22.132Z</time>
      </trkpt>
      <trkpt lat="45.68756" lon="3.12211">
        <ele>561.1</ele>
        <time>2021-11-06T17:31:22.811Z</time>
      </trkpt>
      <trkpt lat="45.68733" lon="3.12207">
        <ele>565.1</ele>
        <time>2021-11-06T17:31:23.494Z</time>
      </trkpt>
      <trkpt lat="45.68728" lon="3.12202">
        <ele>566</ele>
        <time>2021-11-06T17:31:24.178Z</time>
      </trkpt>
      <trkpt lat="45.68727" lon="3.12198">
        <ele>566.1</ele>
        <time>2021-11-06T17:31:24.863Z</time>
      </trkpt>
      <trkpt lat="45.68731" lon="3.12176">
        <ele>565.4</ele>
        <time>2021-11-06T17:31:25.551Z</time>
      </trkpt>
      <trkpt lat="45.68763" lon="3.12073">
        <ele>561.8</ele>
        <time>2021-11-06T17:31:26.255Z</time>
      </trkpt>
      <trkpt lat="45.68773" lon="3.12032">
        <ele>560.7</ele>
        <time>2021-11-06T17:31:26.965Z</time>
      </trkpt>
      <trkpt lat="45.68774" lon="3.11998">
        <ele>560.5</ele>
        <time>2021-11-06T17:31:27.680Z</time>
      </trkpt>
      <trkpt lat="45.68772" lon="3.11966">
        <ele>560</ele>
        <time>2021-11-06T17:31:28.399Z</time>
      </trkpt>
      <trkpt lat="45.68775" lon="3.11944">
        <ele>560.3</ele>
        <time>2021-11-06T17:31:29.122Z</time>
      </trkpt>
      <trkpt lat="45.68776" lon="3.11921">
        <ele>560.2</ele>
        <time>2021-11-06T17:31:29.848Z</time>
      </trkpt>
      <trkpt lat="45.68771" lon="3.11883">
        <ele>560.6</ele>
        <time>2021-11-06T17:31:30.579Z</time>
      </trkpt>
      <trkpt lat="45.6877" lon="3.11836">
        <ele>561</ele>
        <time>2021-11-06T17:31:31.317Z</time>
      </trkpt>
      <trkpt lat="45.68767" lon="3.11824">
        <ele>561.6</ele>
        <time>2021-11-06T17:31:32.057Z</time>
      </trkpt>
      <trkpt lat="45.68743" lon="3.11756">
        <ele>567.3</ele>
        <time>2021-11-06T17:31:32.807Z</time>
      </trkpt>
      <trkpt lat="45.6874" lon="3.11742">
        <ele>568.2</ele>
        <time>2021-11-06T17:31:33.559Z</time>
      </trkpt>
      <trkpt lat="45.68738" lon="3.11705">
        <ele>568.7</ele>
        <time>2021-11-06T17:31:34.317Z</time>
      </trkpt>
      <trkpt lat="45.68736" lon="3.11687">
        <ele>568.9</ele>
        <time>2021-11-06T17:31:35.077Z</time>
      </trkpt>
      <trkpt lat="45.68735" lon="3.1161">
        <ele>568.7</ele>
        <time>2021-11-06T17:31:35.848Z</time>
      </trkpt>
      <trkpt lat="45.68717" lon="3.115">
        <ele>570.1</ele>
        <time>2021-11-06T17:31:36.635Z</time>
      </trkpt>
      <trkpt lat="45.68685" lon="3.1143">
        <ele>577.4</ele>
        <time>2021-11-06T17:31:37.433Z</time>
      </trkpt>
      <trkpt lat="45.68677" lon="3.11405">
        <ele>579.6</ele>
        <time>2021-11-06T17:31:38.235Z</time>
      </trkpt>
      <trkpt lat="45.68664" lon="3.11326">
        <ele>583.2</ele>
        <time>2021-11-06T17:31:39.049Z</time>
      </trkpt>
      <trkpt lat="45.68645" lon="3.11283">
        <ele>584.6</ele>
        <time>2021-11-06T17:31:39.870Z</time>
      </trkpt>
      <trkpt lat="45.68629" lon="3.11228">
        <ele>586.3</ele>
        <time>2021-11-06T17:31:40.699Z</time>
      </trkpt>
      <trkpt lat="45.68612" lon="3.11188">
        <ele>589.3</ele>
        <time>2021-11-06T17:31:41.535Z</time>
      </trkpt>
      <trkpt lat="45.68602" lon="3.11171">
        <ele>589.5</ele>
        <time>2021-11-06T17:31:42.374Z</time>
      </trkpt>
      <trkpt lat="45.68577" lon="3.11146">
        <ele>591.9</ele>
        <time>2021-11-06T17:31:43.219Z</time>
      </trkpt>
      <trkpt lat="45.68567" lon="3.11139">
        <ele>592.8</ele>
        <time>2021-11-06T17:31:44.066Z</time>
      </trkpt>
      <trkpt lat="45.68552" lon="3.11118">
        <ele>593.7</ele>
        <time>2021-11-06T17:31:44.917Z</time>
      </trkpt>
      <trkpt lat="45.68535" lon="3.11079">
        <ele>594.9</ele>
        <time>2021-11-06T17:31:45.775Z</time>
      </trkpt>
      <trkpt lat="45.68501" lon="3.11052">
        <ele>600.7</ele>
        <time>2021-11-06T17:31:46.641Z</time>
      </trkpt>
      <trkpt lat="45.6849" lon="3.11036">
        <ele>601.8</ele>
        <time>2021-11-06T17:31:47.510Z</time>
      </trkpt>
      <trkpt lat="45.68465" lon="3.11024">
        <ele>605.1</ele>
        <time>2021-11-06T17:31:48.384Z</time>
      </trkpt>
      <trkpt lat="45.68454" lon="3.11014">
        <ele>606.6</ele>
        <time>2021-11-06T17:31:49.261Z</time>
      </trkpt>
      <trkpt lat="45.68444" lon="3.10995">
        <ele>607.7</ele>
        <time>2021-11-06T17:31:50.141Z</time>
      </trkpt>
      <trkpt lat="45.68442" lon="3.10981">
        <ele>607.2</ele>
        <time>2021-11-06T17:31:51.023Z</time>
      </trkpt>
      <trkpt lat="45.68433" lon="3.10962">
        <ele>608.5</ele>
        <time>2021-11-06T17:31:51.908Z</time>
      </trkpt>
      <trkpt lat="45.68425" lon="3.10951">
        <ele>610.1</ele>
        <time>2021-11-06T17:31:52.795Z</time>
      </trkpt>
      <trkpt lat="45.68412" lon="3.10923">
        <ele>611.1</ele>
        <time>2021-11-06T17:31:53.687Z</time>
      </trkpt>
      <trkpt lat="45.6841" lon="3.10914">
        <ele>610.7</ele>
        <time>2021-11-06T17:31:54.580Z</time>
      </trkpt>
      <trkpt lat="45.68395" lon="3.10876">
        <ele>611.2</ele>
        <time>2021-11-06T17:31:55.480Z</time>
      </trkpt>
      <trkpt lat="45.68382" lon="3.10822">
        <ele>611.3</ele>
        <time>2021-11-06T17:31:56.388Z</time>
      </trkpt>
      <trkpt lat="45.68382" lon="3.10807">
        <ele>610.8</ele>
        <time>2021-11-06T17:31:57.298Z</time>
      </trkpt>
      <trkpt lat="45.68366" lon="3.10725">
        <ele>610.3</ele>
        <time>2021-11-06T17:31:58.220Z</time>
      </trkpt>
      <trkpt lat="45.68351" lon="3.10667">
        <ele>610.1</ele>
        <time>2021-11-06T17:31:59.150Z</time>
      </trkpt>
      <trkpt lat="45.68333" lon="3.10642">
        <ele>612</ele>
        <time>2021-11-06T17:32:00.085Z</time>
      </trkpt>
      <trkpt lat="45.68311" lon="3.1059">
        <ele>614.1</ele>
        <time>2021-11-06T17:32:01.029Z</time>
      </trkpt>
      <trkpt lat="45.68304" lon="3.10552">
        <ele>615.2</ele>
        <time>2021-11-06T17:32:01.978Z</time>
      </trkpt>
      <trkpt lat="45.68304" lon="3.10515">
        <ele>615.7</ele>
        <time>2021-11-06T17:32:02.932Z</time>
      </trkpt>
      <trkpt lat="45.68311" lon="3.10461">
        <ele>616.3</ele>
        <time>2021-11-06T17:32:03.894Z</time>
      </trkpt>
      <trkpt lat="45.68309" lon="3.10426">
        <ele>616.7</ele>
        <time>2021-11-06T17:32:04.861Z</time>
      </trkpt>
      <trkpt lat="45.68289" lon="3.1033">
        <ele>615.3</ele>
        <time>2021-11-06T17:32:05.842Z</time>
      </trkpt>
      <trkpt lat="45.68288" lon="3.10296">
        <ele>614.5</ele>
        <time>2021-11-06T17:32:06.828Z</time>
      </trkpt>
      <trkpt lat="45.68284" lon="3.10272">
        <ele>615.1</ele>
        <time>2021-11-06T17:32:07.817Z</time>
      </trkpt>
      <trkpt lat="45.68283" lon="3.10252">
        <ele>615.2</ele>
        <time>2021-11-06T17:32:08.809Z</time>
      </trkpt>
      <trkpt lat="45.68299" lon="3.10163">
        <ele>611.3</ele>
        <time>2021-11-06T17:32:09.814Z</time>
      </trkpt>
      <trkpt lat="45.68311" lon="3.10123">
        <ele>610.6</ele>
        <time>2021-11-06T17:32:10.825Z</time>
      </trkpt>
      <trkpt lat="45.68313" lon="3.10101">
        <ele>610.9</ele>
        <time>2021-11-06T17:32:11.839Z</time>
      </trkpt>
      <trkpt lat="45.68308" lon="3.10078">
        <ele>611.9</ele>
        <time>2021-11-06T17:32:12.857Z</time>
      </trkpt>
      <trkpt lat="45.68308" lon="3.10066">
        <ele>612.4</ele>
        <time>2021-11-06T17:32:13.876Z</time>
      </trkpt>
      <trkpt lat="45.68298" lon="3.1002">
        <ele>614.2</ele>
        <time>2021-11-06T17:32:14.902Z</time>
      </trkpt>
      <trkpt lat="45.68298" lon="3.10001">
        <ele>614.4</ele>
        <time>2021-11-06T17:32:15.931Z</time>
      </trkpt>
      <trkpt lat="45.68306" lon="3.09956">
        <ele>615.1</ele>
        <time>2021-11-06T17:32:16.966Z</time>
      </trkpt>
      <trkpt lat="45.68308" lon="3.0992">
        <ele>617.5</ele>
        <time>2021-11-06T17:32:18.006Z</time>
      </trkpt>
      <trkpt lat="45.68312" lon="3.09897">
        <ele>617.5</ele>
        <time>2021-11-06T17:32:19.050Z</time>
      </trkpt>
      <trkpt lat="45.68335" lon="3.09847">
        <ele>617.2</ele>
        <time>2021-11-06T17:32:20.102Z</time>
      </trkpt>
      <trkpt lat="45.68345" lon="3.09834">
        <ele>615.9</ele>
        <time>2021-11-06T17:32:21.157Z</time>
      </trkpt>
      <trkpt lat="45.68363" lon="3.09787">
        <ele>613.3</ele>
        <time>2021-11-06T17:32:22.219Z</time>
      </trkpt>
      <trkpt lat="45.6837" lon="3.09774">
        <ele>612.5</ele>
        <time>2021-11-06T17:32:23.284Z</time>
      </trkpt>
      <trkpt lat="45.6838" lon="3.0973">
        <ele>611.4</ele>
        <time>2021-11-06T17:32:24.355Z</time>
      </trkpt>
      <trkpt lat="45.68393" lon="3.09693">
        <ele>609.3</ele>
        <time>2021-11-06T17:32:25.432Z</time>
      </trkpt>
      <trkpt lat="45.68395" lon="3.09677">
        <ele>608.9</ele>
        <time>2021-11-06T17:32:26.511Z</time>
      </trkpt>
      <trkpt lat="45.68394" lon="3.09652">
        <ele>608.6</ele>
        <time>2021-11-06T17:32:27.594Z</time>
      </trkpt>
      <trkpt lat="45.68389" lon="3.09632">
        <ele>608.7</ele>
        <time>2021-11-06T17:32:28.680Z</time>
      </trkpt>
      <trkpt lat="45.68388" lon="3.09602">
        <ele>608.1</ele>
        <time>2021-11-06T17:32:29.770Z</time>
      </trkpt>
      <trkpt lat="45.68392" lon="3.09575">
        <ele>607.6</ele>
        <time>2021-11-06T17:32:30.864Z</time>
      </trkpt>
      <trkpt lat="45.68392" lon="3.09552">
        <ele>607.8</ele>
        <time>2021-11-06T17:32:31.961Z</time>
      </trkpt>
      <trkpt lat="45.68386" lon="3.09527">
        <ele>609.3</ele>
        <time>2021-11-06T17:32:33.062Z</time>
      </trkpt>
      <trkpt lat="45.68382" lon="3.09523">
        <ele>609.9</ele>
        <time>2021-11-06T17:32:34.164Z</time>
      </trkpt>
      <trkpt lat="45.68371" lon="3.09516">
        <ele>611.4</ele>
        <time>2021-11-06T17:32:35.268Z</time>
      </trkpt>
      <trkpt lat="45.68362" lon="3.09507">
        <ele>612.7</ele>
        <time>2021-11-06T17:32:36.374Z</time>
      </trkpt>
      <trkpt lat="45.68344" lon="3.09494">
        <ele>615.8</ele>
        <time>2021-11-06T17:32:37.484Z</time>
      </trkpt>
      <trkpt lat="45.68337" lon="3.09483">
        <ele>617.2</ele>
        <time>2021-11-06T17:32:38.596Z</time>
      </trkpt>
      <trkpt lat="45.68326" lon="3.09458">
        <ele>619.8</ele>
        <time>2021-11-06T17:32:39.712Z</time>
      </trkpt>
      <trkpt lat="45.68309" lon="3.09401">
        <ele>623.5</ele>
        <time>2021-11-06T17:32:40.837Z</time>
      </trkpt>
      <trkpt lat="45.68292" lon="3.09313">
        <ele>626.5</ele>
        <time>2021-11-06T17:32:41.975Z</time>
      </trkpt>
      <trkpt lat="45.6829" lon="3.09297">
        <ele>626.6</ele>
        <time>2021-11-06T17:32:43.115Z</time>
      </trkpt>
      <trkpt lat="45.68293" lon="3.09219">
        <ele>628.1</ele>
        <time>2021-11-06T17:32:44.266Z</time>
      </trkpt>
      <trkpt lat="45.68291" lon="3.09196">
        <ele>629.5</ele>
        <time>2021-11-06T17:32:45.420Z</time>
      </trkpt>
      <trkpt lat="45.68295" lon="3.09145">
        <ele>631.2</ele>
        <time>2021-11-06T17:32:46.582Z</time>
      </trkpt>
      <trkpt lat="45.68299" lon="3.09128">
        <ele>631.3</ele>
        <time>2021-11-06T17:32:47.746Z</time>
      </trkpt>
      <trkpt lat="45.68298" lon="3.0907">
        <ele>634.3</ele>
        <time>2021-11-06T17:32:48.918Z</time>
      </trkpt>
      <trkpt lat="45.683" lon="3.09054">
        <ele>635.2</ele>
        <time>2021-11-06T17:32:50.093Z</time>
      </trkpt>
      <trkpt lat="45.68304" lon="3.09045">
        <ele>635.8</ele>
        <time>2021-11-06T17:32:51.269Z</time>
      </trkpt>
      <trkpt lat="45.68319" lon="3.09038">
        <ele>635.3</ele>
        <time>2021-11-06T17:32:52.448Z</time>
      </trkpt>
      <trkpt lat="45.68336" lon="3.09006">
        <ele>637.1</ele>
        <time>2021-11-06T17:32:53.633Z</time>
      </trkpt>
      <trkpt lat="45.68378" lon="3.08902">
        <ele>642.2</ele>
        <time>2021-11-06T17:32:54.835Z</time>
      </trkpt>
      <trkpt lat="45.6841" lon="3.08856">
        <ele>644.5</ele>
        <time>2021-11-06T17:32:56.046Z</time>
      </trkpt>
      <trkpt lat="45.68434" lon="3.08832">
        <ele>645.4</ele>
        <time>2021-11-06T17:32:57.263Z</time>
      </trkpt>
      <trkpt lat="45.68459" lon="3.08819">
        <ele>646.3</ele>
        <time>2021-11-06T17:32:58.485Z</time>
      </trkpt>
      <trkpt lat="45.68468" lon="3.0881">
        <ele>648.1</ele>
        <time>2021-11-06T17:32:59.709Z</time>
      </trkpt>
      <trkpt lat="45.68484" lon="3.08788">
        <ele>651.7</ele>
        <time>2021-11-06T17:33:00.938Z</time>
      </trkpt>
      <trkpt lat="45.68495" lon="3.08765">
        <ele>655.5</ele>
        <time>2021-11-06T17:33:02.171Z</time>
      </trkpt>
      <trkpt lat="45.68498" lon="3.08752">
        <ele>657.7</ele>
        <time>2021-11-06T17:33:03.405Z</time>
      </trkpt>
      <trkpt lat="45.68514" lon="3.08708">
        <ele>661.3</ele>
        <time>2021-11-06T17:33:04.646Z</time>
      </trkpt>
      <trkpt lat="45.68523" lon="3.08693">
        <ele>661</ele>
        <time>2021-11-06T17:33:05.890Z</time>
      </trkpt>
      <trkpt lat="45.68542" lon="3.08651">
        <ele>661.1</ele>
        <time>2021-11-06T17:33:07.141Z</time>
      </trkpt>
      <trkpt lat="45.68558" lon="3.0863">
        <ele>660.1</ele>
        <time>2021-11-06T17:33:08.397Z</time>
      </trkpt>
      <trkpt lat="45.68569" lon="3.08608">
        <ele>659.3</ele>
        <time>2021-11-06T17:33:09.656Z</time>
      </trkpt>
      <trkpt lat="45.68576" lon="3.08568">
        <ele>660.8</ele>
        <time>2021-11-06T17:33:10.921Z</time>
      </trkpt>
      <trkpt lat="45.68575" lon="3.08533">
        <ele>662.6</ele>
        <time>2021-11-06T17:33:12.191Z</time>
      </trkpt>
      <trkpt lat="45.68579" lon="3.0852">
        <ele>662.3</ele>
        <time>2021-11-06T17:33:13.463Z</time>
      </trkpt>
      <trkpt lat="45.68599" lon="3.08477">
        <ele>660.4</ele>
        <time>2021-11-06T17:33:14.742Z</time>
      </trkpt>
      <trkpt lat="45.68649" lon="3.0835">
        <ele>656.1</ele>
        <time>2021-11-06T17:33:16.042Z</time>
      </trkpt>
      <trkpt lat="45.68658" lon="3.08312">
        <ele>656.9</ele>
        <time>2021-11-06T17:33:17.347Z</time>
      </trkpt>
      <trkpt lat="45.6866" lon="3.08297">
        <ele>657.6</ele>
        <time>2021-11-06T17:33:18.654Z</time>
      </trkpt>
      <trkpt lat="45.6868" lon="3.08236">
        <ele>658.1</ele>
        <time>2021-11-06T17:33:19.971Z</time>
      </trkpt>
      <trkpt lat="45.68694" lon="3.08178">
        <ele>658.3</ele>
        <time>2021-11-06T17:33:21.296Z</time>
      </trkpt>
      <trkpt lat="45.68705" lon="3.08144">
        <ele>657.2</ele>
        <time>2021-11-06T17:33:22.627Z</time>
      </trkpt>
      <trkpt lat="45.6871" lon="3.08118">
        <ele>656.4</ele>
        <time>2021-11-06T17:33:23.962Z</time>
      </trkpt>
      <trkpt lat="45.68711" lon="3.08092">
        <ele>656.2</ele>
        <time>2021-11-06T17:33:25.300Z</time>
      </trkpt>
      <trkpt lat="45.68709" lon="3.08072">
        <ele>656.6</ele>
        <time>2021-11-06T17:33:26.641Z</time>
      </trkpt>
      <trkpt lat="45.68706" lon="3.08061">
        <ele>657.3</ele>
        <time>2021-11-06T17:33:27.984Z</time>
      </trkpt>
      <trkpt lat="45.68701" lon="3.08015">
        <ele>658.3</ele>
        <time>2021-11-06T17:33:29.333Z</time>
      </trkpt>
      <trkpt lat="45.68702" lon="3.08008">
        <ele>657.8</ele>
        <time>2021-11-06T17:33:30.683Z</time>
      </trkpt>
      <trkpt lat="45.68696" lon="3.07971">
        <ele>659.4</ele>
        <time>2021-11-06T17:33:32.038Z</time>
      </trkpt>
      <trkpt lat="45.68693" lon="3.07907">
        <ele>660.4</ele>
        <time>2021-11-06T17:33:33.402Z</time>
      </trkpt>
      <trkpt lat="45.6869" lon="3.07884">
        <ele>661.1</ele>
        <time>2021-11-06T17:33:34.770Z</time>
      </trkpt>
      <trkpt lat="45.68681" lon="3.07846">
        <ele>662.7</ele>
        <time>2021-11-06T17:33:36.143Z</time>
      </trkpt>
      <trkpt lat="45.68677" lon="3.07772">
        <ele>663.1</ele>
        <time>2021-11-06T17:33:37.527Z</time>
      </trkpt>
      <trkpt lat="45.68683" lon="3.07747">
        <ele>660.6</ele>
        <time>2021-11-06T17:33:38.915Z</time>
      </trkpt>
      <trkpt lat="45.68692" lon="3.07723">
        <ele>658.1</ele>
        <time>2021-11-06T17:33:40.306Z</time>
      </trkpt>
      <trkpt lat="45.687" lon="3.0768">
        <ele>654.7</ele>
        <time>2021-11-06T17:33:41.704Z</time>
      </trkpt>
      <trkpt lat="45.68714" lon="3.07644">
        <ele>649.7</ele>
        <time>2021-11-06T17:33:43.107Z</time>
      </trkpt>
      <trkpt lat="45.68716" lon="3.07631">
        <ele>648.2</ele>
        <time>2021-11-06T17:33:44.512Z</time>
      </trkpt>
      <trkpt lat="45.68711" lon="3.07603">
        <ele>646.9</ele>
        <time>2021-11-06T17:33:45.921Z</time>
      </trkpt>
      <trkpt lat="45.68714" lon="3.07584">
        <ele>644</ele>
        <time>2021-11-06T17:33:47.333Z</time>
      </trkpt>
      <trkpt lat="45.68721" lon="3.07578">
        <ele>643.3</ele>
        <time>2021-11-06T17:33:48.747Z</time>
      </trkpt>
      <trkpt lat="45.68743" lon="3.07606">
        <ele>641.8</ele>
        <time>2021-11-06T17:33:50.167Z</time>
      </trkpt>
      <trkpt lat="45.68747" lon="3.07616">
        <ele>640.9</ele>
        <time>2021-11-06T17:33:51.588Z</time>
      </trkpt>
      <trkpt lat="45.68748" lon="3.07634">
        <ele>639</ele>
        <time>2021-11-06T17:33:53.012Z</time>
      </trkpt>
      <trkpt lat="45.68751" lon="3.07645">
        <ele>638.3</ele>
        <time>2021-11-06T17:33:54.437Z</time>
      </trkpt>
      <trkpt lat="45.68773" lon="3.07668">
        <ele>634.2</ele>
        <time>2021-11-06T17:33:55.868Z</time>
      </trkpt>
      <trkpt lat="45.68777" lon="3.07679">
        <ele>632.8</ele>
        <time>2021-11-06T17:33:57.301Z</time>
      </trkpt>
      <trkpt lat="45.68783" lon="3.07682">
        <ele>631</ele>
        <time>2021-11-06T17:33:58.735Z</time>
      </trkpt>
      <trkpt lat="45.68803" lon="3.07718">
        <ele>624.5</ele>
        <time>2021-11-06T17:34:00.175Z</time>
      </trkpt>
      <trkpt lat="45.68809" lon="3.07735">
        <ele>622.1</ele>
        <time>2021-11-06T17:34:01.618Z</time>
      </trkpt>
      <trkpt lat="45.6882" lon="3.07753">
        <ele>619.3</ele>
        <time>2021-11-06T17:34:03.064Z</time>
      </trkpt>
      <trkpt lat="45.68832" lon="3.07758">
        <ele>616.3</ele>
        <time>2021-11-06T17:34:04.513Z</time>
      </trkpt>
      <trkpt lat="45.68853" lon="3.07822">
        <ele>608.9</ele>
        <time>2021-11-06T17:34:05.972Z</time>
      </trkpt>
      <trkpt lat="45.68858" lon="3.07869">
        <ele>606.1</ele>
        <time>2021-11-06T17:34:07.437Z</time>
      </trkpt>
      <trkpt lat="45.68858" lon="3.07898">
        <ele>604.9</ele>
        <time>2021-11-06T17:34:08.906Z</time>
      </trkpt>
      <trkpt lat="45.68868" lon="3.07926">
        <ele>602.4</ele>
        <time>2021-11-06T17:34:10.380Z</time>
      </trkpt>
      <trkpt lat="45.68879" lon="3.07952">
        <ele>599.2</ele>
        <time>2021-11-06T17:34:11.858Z</time>
      </trkpt>
      <trkpt lat="45.68893" lon="3.07968">
        <ele>594.4</ele>
        <time>2021-11-06T17:34:13.340Z</time>
      </trkpt>
      <trkpt lat="45.68904" lon="3.07988">
        <ele>591.1</ele>
        <time>2021-11-06T17:34:14.825Z</time>
      </trkpt>
      <trkpt lat="45.68922" lon="3.08037">
        <ele>584.2</ele>
        <time>2021-11-06T17:34:16.318Z</time>
      </trkpt>
      <trkpt lat="45.68952" lon="3.08092">
        <ele>577</ele>
        <time>2021-11-06T17:34:17.821Z</time>
      </trkpt>
      <trkpt lat="45.68973" lon="3.08112">
        <ele>571.9</ele>
        <time>2021-11-06T17:34:19.329Z</time>
      </trkpt>
      <trkpt lat="45.68998" lon="3.08125">
        <ele>567.8</ele>
        <time>2021-11-06T17:34:20.842Z</time>
      </trkpt>
      <trkpt lat="45.69002" lon="3.08119">
        <ele>567.4</ele>
        <time>2021-11-06T17:34:22.356Z</time>
      </trkpt>
      <trkpt lat="45.68997" lon="3.08074">
        <ele>570.4</ele>
        <time>2021-11-06T17:34:23.877Z</time>
      </trkpt>
      <trkpt lat="45.68999" lon="3.08051">
        <ele>572.6</ele>
        <time>2021-11-06T17:34:25.401Z</time>
      </trkpt>
      <trkpt lat="45.69009" lon="3.08007">
        <ele>576.5</ele>
        <time>2021-11-06T17:34:26.931Z</time>
      </trkpt>
      <trkpt lat="45.69005" lon="3.07974">
        <ele>578.4</ele>
        <time>2021-11-06T17:34:28.466Z</time>
      </trkpt>
      <trkpt lat="45.69005" lon="3.07957">
        <ele>578.9</ele>
        <time>2021-11-06T17:34:30.003Z</time>
      </trkpt>
      <trkpt lat="45.69014" lon="3.07911">
        <ele>580.6</ele>
        <time>2021-11-06T17:34:31.547Z</time>
      </trkpt>
      <trkpt lat="45.69039" lon="3.07833">
        <ele>583.2</ele>
        <time>2021-11-06T17:34:33.103Z</time>
      </trkpt>
      <trkpt lat="45.69044" lon="3.07779">
        <ele>583.5</ele>
        <time>2021-11-06T17:34:34.667Z</time>
      </trkpt>
      <trkpt lat="45.69043" lon="3.07758">
        <ele>585.5</ele>
        <time>2021-11-06T17:34:36.234Z</time>
      </trkpt>
      <trkpt lat="45.69039" lon="3.07746">
        <ele>586.9</ele>
        <time>2021-11-06T17:34:37.803Z</time>
      </trkpt>
      <trkpt lat="45.69037" lon="3.07695">
        <ele>589.3</ele>
        <time>2021-11-06T17:34:39.379Z</time>
      </trkpt>
      <trkpt lat="45.69021" lon="3.07639">
        <ele>598</ele>
        <time>2021-11-06T17:34:40.963Z</time>
      </trkpt>
      <trkpt lat="45.6901" lon="3.07582">
        <ele>602.1</ele>
        <time>2021-11-06T17:34:42.556Z</time>
      </trkpt>
      <trkpt lat="45.69" lon="3.07546">
        <ele>606.7</ele>
        <time>2021-11-06T17:34:44.154Z</time>
      </trkpt>
      <trkpt lat="45.68994" lon="3.07515">
        <ele>608.6</ele>
        <time>2021-11-06T17:34:45.757Z</time>
      </trkpt>
      <trkpt lat="45.68997" lon="3.07498">
        <ele>608.5</ele>
        <time>2021-11-06T17:34:47.362Z</time>
      </trkpt>
      <trkpt lat="45.68996" lon="3.07463">
        <ele>610.3</ele>
        <time>2021-11-06T17:34:48.972Z</time>
      </trkpt>
      <trkpt lat="45.68992" lon="3.07436">
        <ele>612</ele>
        <time>2021-11-06T17:34:50.586Z</time>
      </trkpt>
      <trkpt lat="45.68993" lon="3.07403">
        <ele>612.6</ele>
        <time>2021-11-06T17:34:52.204Z</time>
      </trkpt>
      <trkpt lat="45.68998" lon="3.07381">
        <ele>612.9</ele>
        <time>2021-11-06T17:34:53.826Z</time>
      </trkpt>
      <trkpt lat="45.69017" lon="3.07322">
        <ele>615.2</ele>
        <time>2021-11-06T17:34:55.457Z</time>
      </trkpt>
      <trkpt lat="45.69068" lon="3.07227">
        <ele>614.5</ele>
        <time>2021-11-06T17:34:57.105Z</time>
      </trkpt>
      <trkpt lat="45.6908" lon="3.0722">
        <ele>613.4</ele>
        <time>2021-11-06T17:34:58.755Z</time>
      </trkpt>
      <trkpt lat="45.69111" lon="3.07309">
        <ele>605.8</ele>
        <time>2021-11-06T17:35:00.419Z</time>
      </trkpt>
      <trkpt lat="45.69119" lon="3.07346">
        <ele>602.1</ele>
        <time>2021-11-06T17:35:02.088Z</time>
      </trkpt>
      <trkpt lat="45.69122" lon="3.0737">
        <ele>599.9</ele>
        <time>2021-11-06T17:35:03.761Z</time>
      </trkpt>
      <trkpt lat="45.69131" lon="3.07417">
        <ele>597.8</ele>
        <time>2021-11-06T17:35:05.441Z</time>
      </trkpt>
      <trkpt lat="45.69154" lon="3.07478">
        <ele>591.5</ele>
        <time>2021-11-06T17:35:07.130Z</time>
      </trkpt>
      <trkpt lat="45.69161" lon="3.07505">
        <ele>588.6</ele>
        <time>2021-11-06T17:35:08.823Z</time>
      </trkpt>
      <trkpt lat="45.69186" lon="3.07567">
        <ele>582.2</ele>
        <time>2021-11-06T17:35:10.526Z</time>
      </trkpt>
      <trkpt lat="45.69196" lon="3.0758">
        <ele>579.2</ele>
        <time>2021-11-06T17:35:12.232Z</time>
      </trkpt>
      <trkpt lat="45.6921" lon="3.07586">
        <ele>577.1</ele>
        <time>2021-11-06T17:35:13.941Z</time>
      </trkpt>
      <trkpt lat="45.69252" lon="3.07584">
        <ele>571</ele>
        <time>2021-11-06T17:35:15.659Z</time>
      </trkpt>
      <trkpt lat="45.6927" lon="3.07591">
        <ele>570.4</ele>
        <time>2021-11-06T17:35:17.380Z</time>
      </trkpt>
      <trkpt lat="45.69299" lon="3.07613">
        <ele>569.6</ele>
        <time>2021-11-06T17:35:19.108Z</time>
      </trkpt>
      <trkpt lat="45.69307" lon="3.07626">
        <ele>568.3</ele>
        <time>2021-11-06T17:35:20.838Z</time>
      </trkpt>
      <trkpt lat="45.69307" lon="3.07634">
        <ele>567.3</ele>
        <time>2021-11-06T17:35:22.569Z</time>
      </trkpt>
      <trkpt lat="45.69295" lon="3.07673">
        <ele>564.4</ele>
        <time>2021-11-06T17:35:24.306Z</time>
      </trkpt>
      <trkpt lat="45.69293" lon="3.07705">
        <ele>563.8</ele>
        <time>2021-11-06T17:35:26.048Z</time>
      </trkpt>
      <trkpt lat="45.69278" lon="3.07782">
        <ele>563.2</ele>
        <time>2021-11-06T17:35:27.801Z</time>
      </trkpt>
      <trkpt lat="45.69275" lon="3.07866">
        <ele>563.1</ele>
        <time>2021-11-06T17:35:29.566Z</time>
      </trkpt>
      <trkpt lat="45.69278" lon="3.07877">
        <ele>564</ele>
        <time>2021-11-06T17:35:31.333Z</time>
      </trkpt>
      <trkpt lat="45.69285" lon="3.07886">
        <ele>565.5</ele>
        <time>2021-11-06T17:35:33.101Z</time>
      </trkpt>
      <trkpt lat="45.6929" lon="3.0789">
        <ele>566.6</ele>
        <time>2021-11-06T17:35:34.871Z</time>
      </trkpt>
      <trkpt lat="45.69293" lon="3.07888">
        <ele>567.3</ele>
        <time>2021-11-06T17:35:36.641Z</time>
      </trkpt>
      <trkpt lat="45.69306" lon="3.07853">
        <ele>568.4</ele>
        <time>2021-11-06T17:35:38.417Z</time>
      </trkpt>
      <trkpt lat="45.69334" lon="3.07809">
        <ele>571.6</ele>
        <time>2021-11-06T17:35:40.201Z</time>
      </trkpt>
      <trkpt lat="45.6935" lon="3.07768">
        <ele>574.6</ele>
        <time>2021-11-06T17:35:41.992Z</time>
      </trkpt>
      <trkpt lat="45.69364" lon="3.07714">
        <ele>575.7</ele>
        <time>2021-11-06T17:35:43.791Z</time>
      </trkpt>
      <trkpt lat="45.69392" lon="3.07642">
        <ele>578.6</ele>
        <time>2021-11-06T17:35:45.601Z</time>
      </trkpt>
      <trkpt lat="45.69398" lon="3.07638">
        <ele>579.6</ele>
        <time>2021-11-06T17:35:47.413Z</time>
      </trkpt>
      <trkpt lat="45.69406" lon="3.0764">
        <ele>581.1</ele>
        <time>2021-11-06T17:35:49.226Z</time>
      </trkpt>
      <trkpt lat="45.6947" lon="3.07672">
        <ele>588.9</ele>
        <time>2021-11-06T17:35:51.053Z</time>
      </trkpt>
      <trkpt lat="45.69473" lon="3.07664">
        <ele>589.1</ele>
        <time>2021-11-06T17:35:52.881Z</time>
      </trkpt>
      <trkpt lat="45.69475" lon="3.07623">
        <ele>589.5</ele>
        <time>2021-11-06T17:35:54.715Z</time>
      </trkpt>
      <trkpt lat="45.69479" lon="3.07616">
        <ele>590.4</ele>
        <time>2021-11-06T17:35:56.550Z</time>
      </trkpt>
      <trkpt lat="45.69503" lon="3.07585">
        <ele>595.9</ele>
        <time>2021-11-06T17:35:58.392Z</time>
      </trkpt>
      <trkpt lat="45.69518" lon="3.07561">
        <ele>602</ele>
        <time>2021-11-06T17:36:00.238Z</time>
      </trkpt>
      <trkpt lat="45.69522" lon="3.07545">
        <ele>604</ele>
        <time>2021-11-06T17:36:02.086Z</time>
      </trkpt>
      <trkpt lat="45.69526" lon="3.07512">
        <ele>606</ele>
        <time>2021-11-06T17:36:03.939Z</time>
      </trkpt>
      <trkpt lat="45.69533" lon="3.07399">
        <ele>608.2</ele>
        <time>2021-11-06T17:36:05.808Z</time>
      </trkpt>
      <trkpt lat="45.69538" lon="3.07355">
        <ele>608.9</ele>
        <time>2021-11-06T17:36:07.683Z</time>
      </trkpt>
      <trkpt lat="45.69538" lon="3.07279">
        <ele>607.5</ele>
        <time>2021-11-06T17:36:09.569Z</time>
      </trkpt>
      <trkpt lat="45.69544" lon="3.07247">
        <ele>608.2</ele>
        <time>2021-11-06T17:36:11.460Z</time>
      </trkpt>
      <trkpt lat="45.69557" lon="3.07211">
        <ele>608.4</ele>
        <time>2021-11-06T17:36:13.356Z</time>
      </trkpt>
      <trkpt lat="45.69598" lon="3.07071">
        <ele>607.9</ele>
        <time>2021-11-06T17:36:15.274Z</time>
      </trkpt>
      <trkpt lat="45.69626" lon="3.06951">
        <ele>611.4</ele>
        <time>2021-11-06T17:36:17.209Z</time>
      </trkpt>
      <trkpt lat="45.69622" lon="3.06899">
        <ele>612</ele>
        <time>2021-11-06T17:36:19.152Z</time>
      </trkpt>
      <trkpt lat="45.69625" lon="3.06854">
        <ele>612.6</ele>
        <time>2021-11-06T17:36:21.101Z</time>
      </trkpt>
      <trkpt lat="45.69628" lon="3.0684">
        <ele>612.8</ele>
        <time>2021-11-06T17:36:23.052Z</time>
      </trkpt>
      <trkpt lat="45.69652" lon="3.0678">
        <ele>612.2</ele>
        <time>2021-11-06T17:36:25.013Z</time>
      </trkpt>
      <trkpt lat="45.69681" lon="3.06724">
        <ele>610</ele>
        <time>2021-11-06T17:36:26.983Z</time>
      </trkpt>
      <trkpt lat="45.69679" lon="3.06713">
        <ele>608.8</ele>
        <time>2021-11-06T17:36:28.955Z</time>
      </trkpt>
      <trkpt lat="45.69677" lon="3.0671">
        <ele>608.5</ele>
        <time>2021-11-06T17:36:30.928Z</time>
      </trkpt>
      <trkpt lat="45.69664" lon="3.06713">
        <ele>607.1</ele>
        <time>2021-11-06T17:36:32.903Z</time>
      </trkpt>
      <trkpt lat="45.69644" lon="3.06724">
        <ele>605.5</ele>
        <time>2021-11-06T17:36:34.883Z</time>
      </trkpt>
      <trkpt lat="45.6962" lon="3.06743">
        <ele>604.8</ele>
        <time>2021-11-06T17:36:36.868Z</time>
      </trkpt>
      <trkpt lat="45.69603" lon="3.06762">
        <ele>603.7</ele>
        <time>2021-11-06T17:36:38.857Z</time>
      </trkpt>
      <trkpt lat="45.69566" lon="3.06837">
        <ele>601.8</ele>
        <time>2021-11-06T17:36:40.859Z</time>
      </trkpt>
      <trkpt lat="45.69544" lon="3.06875">
        <ele>600.3</ele>
        <time>2021-11-06T17:36:42.868Z</time>
      </trkpt>
      <trkpt lat="45.69521" lon="3.06908">
        <ele>599.7</ele>
        <time>2021-11-06T17:36:44.884Z</time>
      </trkpt>
      <trkpt lat="45.69495" lon="3.06933">
        <ele>598.8</ele>
        <time>2021-11-06T17:36:46.906Z</time>
      </trkpt>
      <trkpt lat="45.69476" lon="3.06943">
        <ele>598.1</ele>
        <time>2021-11-06T17:36:48.932Z</time>
      </trkpt>
      <trkpt lat="45.69445" lon="3.06953">
        <ele>597.3</ele>
        <time>2021-11-06T17:36:50.964Z</time>
      </trkpt>
      <trkpt lat="45.69426" lon="3.06966">
        <ele>596.6</ele>
        <time>2021-11-06T17:36:53.001Z</time>
      </trkpt>
      <trkpt lat="45.6942" lon="3.06966">
        <ele>596.2</ele>
        <time>2021-11-06T17:36:55.039Z</time>
      </trkpt>
      <trkpt lat="45.69416" lon="3.06957">
        <ele>595.8</ele>
        <time>2021-11-06T17:36:57.078Z</time>
      </trkpt>
      <trkpt lat="45.69418" lon="3.06922">
        <ele>595.3</ele>
        <time>2021-11-06T17:36:59.122Z</time>
      </trkpt>
      <trkpt lat="45.69422" lon="3.069">
        <ele>595.4</ele>
        <time>2021-11-06T17:37:01.169Z</time>
      </trkpt>
      <trkpt lat="45.69454" lon="3.06803">
        <ele>597.3</ele>
        <time>2021-11-06T17:37:03.231Z</time>
      </trkpt>
      <trkpt lat="45.69502" lon="3.0665">
        <ele>600</ele>
        <time>2021-11-06T17:37:05.317Z</time>
      </trkpt>
      <trkpt lat="45.69423" lon="3.06628">
        <ele>595.4</ele>
        <time>2021-11-06T17:37:07.419Z</time>
      </trkpt>
      <trkpt lat="45.69414" lon="3.06508">
        <ele>604.3</ele>
        <time>2021-11-06T17:37:09.538Z</time>
      </trkpt>
      <trkpt lat="45.69405" lon="3.06429">
        <ele>611.9</ele>
        <time>2021-11-06T17:37:11.668Z</time>
      </trkpt>
      <trkpt lat="45.69405" lon="3.06372">
        <ele>614.3</ele>
        <time>2021-11-06T17:37:13.806Z</time>
      </trkpt>
      <trkpt lat="45.69407" lon="3.06332">
        <ele>616.9</ele>
        <time>2021-11-06T17:37:15.950Z</time>
      </trkpt>
      <trkpt lat="45.69414" lon="3.06261">
        <ele>616.5</ele>
        <time>2021-11-06T17:37:18.104Z</time>
      </trkpt>
      <trkpt lat="45.69417" lon="3.06192">
        <ele>617</ele>
        <time>2021-11-06T17:37:20.268Z</time>
      </trkpt>
      <trkpt lat="45.69414" lon="3.06175">
        <ele>618.4</ele>
        <time>2021-11-06T17:37:22.434Z</time>
      </trkpt>
      <trkpt lat="45.6942" lon="3.06154">
        <ele>617.1</ele>
        <time>2021-11-06T17:37:24.603Z</time>
      </trkpt>
      <trkpt lat="45.69423" lon="3.06109">
        <ele>616.6</ele>
        <time>2021-11-06T17:37:26.778Z</time>
      </trkpt>
      <trkpt lat="45.6942" lon="3.06073">
        <ele>616.8</ele>
        <time>2021-11-06T17:37:28.959Z</time>
      </trkpt>
      <trkpt lat="45.69411" lon="3.06037">
        <ele>617.8</ele>
        <time>2021-11-06T17:37:31.145Z</time>
      </trkpt>
      <trkpt lat="45.69403" lon="3.06017">
        <ele>619.1</ele>
        <time>2021-11-06T17:37:33.334Z</time>
      </trkpt>
      <trkpt lat="45.69401" lon="3.05992">
        <ele>618.8</ele>
        <time>2021-11-06T17:37:35.527Z</time>
      </trkpt>
      <trkpt lat="45.69394" lon="3.05959">
        <ele>620.4</ele>
        <time>2021-11-06T17:37:37.725Z</time>
      </trkpt>
      <trkpt lat="45.6937" lon="3.05902">
        <ele>623.3</ele>
        <time>2021-11-06T17:37:39.932Z</time>
      </trkpt>
      <trkpt lat="45.6936" lon="3.0584">
        <ele>622.8</ele>
        <time>2021-11-06T17:37:42.148Z</time>
      </trkpt>
      <trkpt lat="45.69358" lon="3.05802">
        <ele>623.6</ele>
        <time>2021-11-06T17:37:44.369Z</time>
      </trkpt>
      <trkpt lat="45.69361" lon="3.05777">
        <ele>624.1</ele>
        <time>2021-11-06T17:37:46.594Z</time>
      </trkpt>
      <trkpt lat="45.69357" lon="3.05717">
        <ele>626.2</ele>
        <time>2021-11-06T17:37:48.827Z</time>
      </trkpt>
      <trkpt lat="45.69362" lon="3.05684">
        <ele>624.8</ele>
        <time>2021-11-06T17:37:51.065Z</time>
      </trkpt>
      <trkpt lat="45.69361" lon="3.05657">
        <ele>624.7</ele>
        <time>2021-11-06T17:37:53.307Z</time>
      </trkpt>
      <trkpt lat="45.69354" lon="3.0562">
        <ele>622.9</ele>
        <time>2021-11-06T17:37:55.554Z</time>
      </trkpt>
      <trkpt lat="45.69308" lon="3.05594">
        <ele>626.6</ele>
        <time>2021-11-06T17:37:57.811Z</time>
      </trkpt>
      <trkpt lat="45.69287" lon="3.05569">
        <ele>629.3</ele>
        <time>2021-11-06T17:38:00.073Z</time>
      </trkpt>
      <trkpt lat="45.69261" lon="3.0553">
        <ele>634.6</ele>
        <time>2021-11-06T17:38:02.343Z</time>
      </trkpt>
      <trkpt lat="45.69248" lon="3.05505">
        <ele>635.8</ele>
        <time>2021-11-06T17:38:04.617Z</time>
      </trkpt>
      <trkpt lat="45.69184" lon="3.05429">
        <ele>643.1</ele>
        <time>2021-11-06T17:38:06.908Z</time>
      </trkpt>
      <trkpt lat="45.69174" lon="3.05419">
        <ele>643.2</ele>
        <time>2021-11-06T17:38:09.201Z</time>
      </trkpt>
      <trkpt lat="45.69148" lon="3.05404">
        <ele>644.6</ele>
        <time>2021-11-06T17:38:11.500Z</time>
      </trkpt>
      <trkpt lat="45.69141" lon="3.05392">
        <ele>644.8</ele>
        <time>2021-11-06T17:38:13.801Z</time>
      </trkpt>
      <trkpt lat="45.69116" lon="3.05332">
        <ele>650.8</ele>
        <time>2021-11-06T17:38:16.112Z</time>
      </trkpt>
      <trkpt lat="45.69101" lon="3.05307">
        <ele>655.4</ele>
        <time>2021-11-06T17:38:18.428Z</time>
      </trkpt>
      <trkpt lat="45.69065" lon="3.05291">
        <ele>662.9</ele>
        <time>2021-11-06T17:38:20.751Z</time>
      </trkpt>
      <trkpt lat="45.69044" lon="3.05275">
        <ele>666.3</ele>
        <time>2021-11-06T17:38:23.079Z</time>
      </trkpt>
      <trkpt lat="45.69025" lon="3.05252">
        <ele>668</ele>
        <time>2021-11-06T17:38:25.412Z</time>
      </trkpt>
      <trkpt lat="45.69011" lon="3.05226">
        <ele>669.3</ele>
        <time>2021-11-06T17:38:27.749Z</time>
      </trkpt>
      <trkpt lat="45.68998" lon="3.05187">
        <ele>671.1</ele>
        <time>2021-11-06T17:38:30.093Z</time>
      </trkpt>
      <trkpt lat="45.6899" lon="3.0517">
        <ele>672</ele>
        <time>2021-11-06T17:38:32.439Z</time>
      </trkpt>
      <trkpt lat="45.68986" lon="3.05168">
        <ele>672.6</ele>
        <time>2021-11-06T17:38:34.786Z</time>
      </trkpt>
      <trkpt lat="45.68977" lon="3.05171">
        <ele>674.4</ele>
        <time>2021-11-06T17:38:37.135Z</time>
      </trkpt>
      <trkpt lat="45.68958" lon="3.05217">
        <ele>680.1</ele>
        <time>2021-11-06T17:38:39.492Z</time>
      </trkpt>
      <trkpt lat="45.68944" lon="3.05234">
        <ele>681.1</ele>
        <time>2021-11-06T17:38:41.852Z</time>
      </trkpt>
      <trkpt lat="45.68932" lon="3.05253">
        <ele>683.7</ele>
        <time>2021-11-06T17:38:44.216Z</time>
      </trkpt>
      <trkpt lat="45.68925" lon="3.05273">
        <ele>686.1</ele>
        <time>2021-11-06T17:38:46.583Z</time>
      </trkpt>
      <trkpt lat="45.68919" lon="3.05299">
        <ele>688.6</ele>
        <time>2021-11-06T17:38:48.954Z</time>
      </trkpt>
      <trkpt lat="45.68911" lon="3.05318">
        <ele>691.3</ele>
        <time>2021-11-06T17:38:51.328Z</time>
      </trkpt>
      <trkpt lat="45.68886" lon="3.05354">
        <ele>694.8</ele>
        <time>2021-11-06T17:38:53.709Z</time>
      </trkpt>
      <trkpt lat="45.68856" lon="3.05383">
        <ele>697.7</ele>
        <time>2021-11-06T17:38:56.097Z</time>
      </trkpt>
      <trkpt lat="45.68831" lon="3.05414">
        <ele>701.5</ele>
        <time>2021-11-06T17:38:58.492Z</time>
      </trkpt>
      <trkpt lat="45.68822" lon="3.05434">
        <ele>706.3</ele>
        <time>2021-11-06T17:39:00.890Z</time>
      </trkpt>
      <trkpt lat="45.68819" lon="3.05446">
        <ele>708.6</ele>
        <time>2021-11-06T17:39:03.290Z</time>
      </trkpt>
      <trkpt lat="45.68817" lon="3.05472">
        <ele>711.9</ele>
        <time>2021-11-06T17:39:05.694Z</time>
      </trkpt>
      <trkpt lat="45.68832" lon="3.0555">
        <ele>719.5</ele>
        <time>2021-11-06T17:39:08.109Z</time>
      </trkpt>
      <trkpt lat="45.68834" lon="3.05585">
        <ele>723.4</ele>
        <time>2021-11-06T17:39:10.529Z</time>
      </trkpt>
      <trkpt lat="45.68828" lon="3.05606">
        <ele>725.9</ele>
        <time>2021-11-06T17:39:12.952Z</time>
      </trkpt>
      <trkpt lat="45.68785" lon="3.05687">
        <ele>735.8</ele>
        <time>2021-11-06T17:39:15.389Z</time>
      </trkpt>
      <trkpt lat="45.6878" lon="3.05714">
        <ele>737.5</ele>
        <time>2021-11-06T17:39:17.830Z</time>
      </trkpt>
      <trkpt lat="45.6878" lon="3.05731">
        <ele>738.1</ele>
        <time>2021-11-06T17:39:20.274Z</time>
      </trkpt>
      <trkpt lat="45.68775" lon="3.05767">
        <ele>740.3</ele>
        <time>2021-11-06T17:39:22.723Z</time>
      </trkpt>
      <trkpt lat="45.68775" lon="3.05789">
        <ele>740.6</ele>
        <time>2021-11-06T17:39:25.175Z</time>
      </trkpt>
      <trkpt lat="45.68792" lon="3.0608">
        <ele>744.3</ele>
        <time>2021-11-06T17:39:27.668Z</time>
      </trkpt>
      <trkpt lat="45.68793" lon="3.0612">
        <ele>745.5</ele>
        <time>2021-11-06T17:39:30.166Z</time>
      </trkpt>
      <trkpt lat="45.688" lon="3.06256">
        <ele>745.6</ele>
        <time>2021-11-06T17:39:32.684Z</time>
      </trkpt>
      <trkpt lat="45.68798" lon="3.06268">
        <ele>745.6</ele>
        <time>2021-11-06T17:39:35.203Z</time>
      </trkpt>
      <trkpt lat="45.68793" lon="3.06278">
        <ele>745.9</ele>
        <time>2021-11-06T17:39:37.724Z</time>
      </trkpt>
      <trkpt lat="45.68694" lon="3.06432">
        <ele>751.5</ele>
        <time>2021-11-06T17:39:40.274Z</time>
      </trkpt>
      <trkpt lat="45.68687" lon="3.06447">
        <ele>751.5</ele>
        <time>2021-11-06T17:39:42.827Z</time>
      </trkpt>
      <trkpt lat="45.68682" lon="3.0645">
        <ele>751.8</ele>
        <time>2021-11-06T17:39:45.381Z</time>
      </trkpt>
      <trkpt lat="45.68481" lon="3.06765">
        <ele>746.1</ele>
        <time>2021-11-06T17:39:47.995Z</time>
      </trkpt>
      <trkpt lat="45.68459" lon="3.06793">
        <ele>745.2</ele>
        <time>2021-11-06T17:39:50.615Z</time>
      </trkpt>
      <trkpt lat="45.68447" lon="3.0682">
        <ele>743.9</ele>
        <time>2021-11-06T17:39:53.239Z</time>
      </trkpt>
      <trkpt lat="45.68443" lon="3.06844">
        <ele>742.6</ele>
        <time>2021-11-06T17:39:55.867Z</time>
      </trkpt>
      <trkpt lat="45.68428" lon="3.06895">
        <ele>740.4</ele>
        <time>2021-11-06T17:39:58.502Z</time>
      </trkpt>
      <trkpt lat="45.68413" lon="3.06931">
        <ele>739.5</ele>
        <time>2021-11-06T17:40:01.143Z</time>
      </trkpt>
      <trkpt lat="45.68402" lon="3.06963">
        <ele>738.3</ele>
        <time>2021-11-06T17:40:03.789Z</time>
      </trkpt>
      <trkpt lat="45.68393" lon="3.07002">
        <ele>738</ele>
        <time>2021-11-06T17:40:06.441Z</time>
      </trkpt>
      <trkpt lat="45.68389" lon="3.07006">
        <ele>738</ele>
        <time>2021-11-06T17:40:09.094Z</time>
      </trkpt>
      <trkpt lat="45.68392" lon="3.0702">
        <ele>737.9</ele>
        <time>2021-11-06T17:40:11.749Z</time>
      </trkpt>
      <trkpt lat="45.68393" lon="3.07071">
        <ele>736.9</ele>
        <time>2021-11-06T17:40:14.411Z</time>
      </trkpt>
      <trkpt lat="45.6839" lon="3.07131">
        <ele>736</ele>
        <time>2021-11-06T17:40:17.082Z</time>
      </trkpt>
      <trkpt lat="45.68392" lon="3.07173">
        <ele>734.9</ele>
        <time>2021-11-06T17:40:19.758Z</time>
      </trkpt>
      <trkpt lat="45.68387" lon="3.07207">
        <ele>734.5</ele>
        <time>2021-11-06T17:40:22.439Z</time>
      </trkpt>
      <trkpt lat="45.68393" lon="3.07235">
        <ele>733.5</ele>
        <time>2021-11-06T17:40:25.124Z</time>
      </trkpt>
      <trkpt lat="45.68402" lon="3.07254">
        <ele>732.9</ele>
        <time>2021-11-06T17:40:27.813Z</time>
      </trkpt>
      <trkpt lat="45.68408" lon="3.07279">
        <ele>732.3</ele>
        <time>2021-11-06T17:40:30.505Z</time>
      </trkpt>
      <trkpt lat="45.68411" lon="3.07324">
        <ele>730.5</ele>
        <time>2021-11-06T17:40:33.204Z</time>
      </trkpt>
      <trkpt lat="45.68416" lon="3.07353">
        <ele>730</ele>
        <time>2021-11-06T17:40:35.907Z</time>
      </trkpt>
      <trkpt lat="45.68415" lon="3.07383">
        <ele>729.2</ele>
        <time>2021-11-06T17:40:38.614Z</time>
      </trkpt>
      <trkpt lat="45.68409" lon="3.07441">
        <ele>727.4</ele>
        <time>2021-11-06T17:40:41.329Z</time>
      </trkpt>
      <trkpt lat="45.6841" lon="3.0746">
        <ele>726.7</ele>
        <time>2021-11-06T17:40:44.047Z</time>
      </trkpt>
      <trkpt lat="45.68407" lon="3.07489">
        <ele>725.7</ele>
        <time>2021-11-06T17:40:46.769Z</time>
      </trkpt>
      <trkpt lat="45.68388" lon="3.07599">
        <ele>723.5</ele>
        <time>2021-11-06T17:40:49.507Z</time>
      </trkpt>
      <trkpt lat="45.6838" lon="3.07667">
        <ele>723</ele>
        <time>2021-11-06T17:40:52.255Z</time>
      </trkpt>
      <trkpt lat="45.68369" lon="3.07731">
        <ele>721.7</ele>
        <time>2021-11-06T17:40:55.012Z</time>
      </trkpt>
      <trkpt lat="45.68363" lon="3.078">
        <ele>720.9</ele>
        <time>2021-11-06T17:40:57.779Z</time>
      </trkpt>
      <trkpt lat="45.68356" lon="3.07832">
        <ele>721</ele>
        <time>2021-11-06T17:41:00.550Z</time>
      </trkpt>
      <trkpt lat="45.68356" lon="3.07854">
        <ele>721</ele>
        <time>2021-11-06T17:41:03.324Z</time>
      </trkpt>
      <trkpt lat="45.68353" lon="3.07864">
        <ele>721</ele>
        <time>2021-11-06T17:41:06.100Z</time>
      </trkpt>
      <trkpt lat="45.68341" lon="3.07988">
        <ele>720.1</ele>
        <time>2021-11-06T17:41:08.893Z</time>
      </trkpt>
      <trkpt lat="45.68327" lon="3.08064">
        <ele>718</ele>
        <time>2021-11-06T17:41:11.698Z</time>
      </trkpt>
      <trkpt lat="45.68315" lon="3.08085">
        <ele>718.3</ele>
        <time>2021-11-06T17:41:14.506Z</time>
      </trkpt>
      <trkpt lat="45.6831" lon="3.081">
        <ele>718.1</ele>
        <time>2021-11-06T17:41:17.317Z</time>
      </trkpt>
      <trkpt lat="45.68297" lon="3.08152">
        <ele>717.5</ele>
        <time>2021-11-06T17:41:20.135Z</time>
      </trkpt>
      <trkpt lat="45.68284" lon="3.08192">
        <ele>717.8</ele>
        <time>2021-11-06T17:41:22.960Z</time>
      </trkpt>
      <trkpt lat="45.68284" lon="3.08206">
        <ele>717.7</ele>
        <time>2021-11-06T17:41:25.787Z</time>
      </trkpt>
      <trkpt lat="45.68276" lon="3.08263">
        <ele>717</ele>
        <time>2021-11-06T17:41:28.622Z</time>
      </trkpt>
      <trkpt lat="45.68268" lon="3.08286">
        <ele>716.5</ele>
        <time>2021-11-06T17:41:31.460Z</time>
      </trkpt>
      <trkpt lat="45.68225" lon="3.08375">
        <ele>713.5</ele>
        <time>2021-11-06T17:41:34.313Z</time>
      </trkpt>
      <trkpt lat="45.68211" lon="3.08415">
        <ele>712.1</ele>
        <time>2021-11-06T17:41:37.173Z</time>
      </trkpt>
      <trkpt lat="45.68207" lon="3.08439">
        <ele>711.6</ele>
        <time>2021-11-06T17:41:40.036Z</time>
      </trkpt>
      <trkpt lat="45.68205" lon="3.08481">
        <ele>710.1</ele>
        <time>2021-11-06T17:41:42.905Z</time>
      </trkpt>
      <trkpt lat="45.68202" lon="3.08498">
        <ele>709.3</ele>
        <time>2021-11-06T17:41:45.777Z</time>
      </trkpt>
      <trkpt lat="45.68189" lon="3.08539">
        <ele>707.6</ele>
        <time>2021-11-06T17:41:48.655Z</time>
      </trkpt>
      <trkpt lat="45.68176" lon="3.08562">
        <ele>706.8</ele>
        <time>2021-11-06T17:41:51.537Z</time>
      </trkpt>
      <trkpt lat="45.6817" lon="3.08588">
        <ele>705.7</ele>
        <time>2021-11-06T17:41:54.423Z</time>
      </trkpt>
      <trkpt lat="45.68169" lon="3.08628">
        <ele>702.8</ele>
        <time>2021-11-06T17:41:57.314Z</time>
      </trkpt>
      <trkpt lat="45.68157" lon="3.08689">
        <ele>698.1</ele>
        <time>2021-11-06T17:42:00.214Z</time>
      </trkpt>
      <trkpt lat="45.68155" lon="3.08709">
        <ele>696.8</ele>
        <time>2021-11-06T17:42:03.117Z</time>
      </trkpt>
      <trkpt lat="45.68149" lon="3.08734">
        <ele>695.2</ele>
        <time>2021-11-06T17:42:06.024Z</time>
      </trkpt>
      <trkpt lat="45.68123" lon="3.08789">
        <ele>691.6</ele>
        <time>2021-11-06T17:42:08.940Z</time>
      </trkpt>
      <trkpt lat="45.68115" lon="3.08799">
        <ele>690.6</ele>
        <time>2021-11-06T17:42:11.858Z</time>
      </trkpt>
      <trkpt lat="45.68108" lon="3.08803">
        <ele>690.2</ele>
        <time>2021-11-06T17:42:14.778Z</time>
      </trkpt>
      <trkpt lat="45.68104" lon="3.08801">
        <ele>690.3</ele>
        <time>2021-11-06T17:42:17.699Z</time>
      </trkpt>
      <trkpt lat="45.68087" lon="3.08734">
        <ele>693.7</ele>
        <time>2021-11-06T17:42:20.630Z</time>
      </trkpt>
      <trkpt lat="45.68081" lon="3.08695">
        <ele>695.9</ele>
        <time>2021-11-06T17:42:23.566Z</time>
      </trkpt>
      <trkpt lat="45.68074" lon="3.08668">
        <ele>697.2</ele>
        <time>2021-11-06T17:42:26.506Z</time>
      </trkpt>
      <trkpt lat="45.68066" lon="3.08653">
        <ele>698</ele>
        <time>2021-11-06T17:42:29.449Z</time>
      </trkpt>
      <trkpt lat="45.68056" lon="3.08638">
        <ele>699</ele>
        <time>2021-11-06T17:42:32.395Z</time>
      </trkpt>
      <trkpt lat="45.68049" lon="3.08623">
        <ele>699.1</ele>
        <time>2021-11-06T17:42:35.343Z</time>
      </trkpt>
      <trkpt lat="45.68006" lon="3.08402">
        <ele>706.8</ele>
        <time>2021-11-06T17:42:38.324Z</time>
      </trkpt>
      <trkpt lat="45.68" lon="3.08309">
        <ele>708</ele>
        <time>2021-11-06T17:42:41.318Z</time>
      </trkpt>
      <trkpt lat="45.67996" lon="3.08282">
        <ele>707.7</ele>
        <time>2021-11-06T17:42:44.315Z</time>
      </trkpt>
      <trkpt lat="45.67982" lon="3.08232">
        <ele>705.8</ele>
        <time>2021-11-06T17:42:47.320Z</time>
      </trkpt>
      <trkpt lat="45.67975" lon="3.08221">
        <ele>705.2</ele>
        <time>2021-11-06T17:42:50.327Z</time>
      </trkpt>
      <trkpt lat="45.67939" lon="3.08193">
        <ele>702.9</ele>
        <time>2021-11-06T17:42:53.342Z</time>
      </trkpt>
      <trkpt lat="45.67903" lon="3.08161">
        <ele>700.8</ele>
        <time>2021-11-06T17:42:56.366Z</time>
      </trkpt>
      <trkpt lat="45.67842" lon="3.08159">
        <ele>701</ele>
        <time>2021-11-06T17:42:59.402Z</time>
      </trkpt>
      <trkpt lat="45.67789" lon="3.08164">
        <ele>695.2</ele>
        <time>2021-11-06T17:43:02.449Z</time>
      </trkpt>
      <trkpt lat="45.67784" lon="3.0818">
        <ele>692.3</ele>
        <time>2021-11-06T17:43:05.498Z</time>
      </trkpt>
      <trkpt lat="45.67824" lon="3.08223">
        <ele>696.2</ele>
        <time>2021-11-06T17:43:08.557Z</time>
      </trkpt>
      <trkpt lat="45.67846" lon="3.08256">
        <ele>697.2</ele>
        <time>2021-11-06T17:43:11.622Z</time>
      </trkpt>
      <trkpt lat="45.67876" lon="3.08339">
        <ele>698.3</ele>
        <time>2021-11-06T17:43:14.701Z</time>
      </trkpt>
      <trkpt lat="45.67893" lon="3.08397">
        <ele>698.8</ele>
        <time>2021-11-06T17:43:17.788Z</time>
      </trkpt>
      <trkpt lat="45.67896" lon="3.08416">
        <ele>697.8</ele>
        <time>2021-11-06T17:43:20.878Z</time>
      </trkpt>
      <trkpt lat="45.67899" lon="3.08464">
        <ele>697.9</ele>
        <time>2021-11-06T17:43:23.975Z</time>
      </trkpt>
      <trkpt lat="45.67897" lon="3.08538">
        <ele>699.6</ele>
        <time>2021-11-06T17:43:27.082Z</time>
      </trkpt>
      <trkpt lat="45.67892" lon="3.08575">
        <ele>700.6</ele>
        <time>2021-11-06T17:43:30.195Z</time>
      </trkpt>
      <trkpt lat="45.67888" lon="3.08593">
        <ele>700.8</ele>
        <time>2021-11-06T17:43:33.310Z</time>
      </trkpt>
      <trkpt lat="45.67874" lon="3.08629">
        <ele>699.4</ele>
        <time>2021-11-06T17:43:36.431Z</time>
      </trkpt>
      <trkpt lat="45.67868" lon="3.08678">
        <ele>700.2</ele>
        <time>2021-11-06T17:43:39.559Z</time>
      </trkpt>
      <trkpt lat="45.67867" lon="3.08724">
        <ele>700</ele>
        <time>2021-11-06T17:43:42.693Z</time>
      </trkpt>
      <trkpt lat="45.67863" lon="3.08741">
        <ele>700</ele>
        <time>2021-11-06T17:43:45.830Z</time>
      </trkpt>
      <trkpt lat="45.67833" lon="3.08804">
        <ele>696</ele>
        <time>2021-11-06T17:43:48.978Z</time>
      </trkpt>
      <trkpt lat="45.67833" lon="3.08812">
        <ele>695.9</ele>
        <time>2021-11-06T17:43:52.127Z</time>
      </trkpt>
      <trkpt lat="45.67842" lon="3.08829">
        <ele>696.7</ele>
        <time>2021-11-06T17:43:55.279Z</time>
      </trkpt>
      <trkpt lat="45.6784" lon="3.08834">
        <ele>696.5</ele>
        <time>2021-11-06T17:43:58.432Z</time>
      </trkpt>
      <trkpt lat="45.67831" lon="3.08833">
        <ele>695.5</ele>
        <time>2021-11-06T17:44:01.586Z</time>
      </trkpt>
      <trkpt lat="45.67822" lon="3.08825">
        <ele>693.4</ele>
        <time>2021-11-06T17:44:04.742Z</time>
      </trkpt>
      <trkpt lat="45.67818" lon="3.08827">
        <ele>692.6</ele>
        <time>2021-11-06T17:44:07.899Z</time>
      </trkpt>
      <trkpt lat="45.67818" lon="3.08834">
        <ele>692.7</ele>
        <time>2021-11-06T17:44:11.057Z</time>
      </trkpt>
      <trkpt lat="45.67826" lon="3.08852">
        <ele>693.7</ele>
        <time>2021-11-06T17:44:14.218Z</time>
      </trkpt>
      <trkpt lat="45.67832" lon="3.08881">
        <ele>694</ele>
        <time>2021-11-06T17:44:17.384Z</time>
      </trkpt>
      <trkpt lat="45.67843" lon="3.08916">
        <ele>693.7</ele>
        <time>2021-11-06T17:44:20.555Z</time>
      </trkpt>
      <trkpt lat="45.6787" lon="3.09029">
        <ele>692.4</ele>
        <time>2021-11-06T17:44:23.743Z</time>
      </trkpt>
      <trkpt lat="45.67866" lon="3.09018">
        <ele>692.9</ele>
        <time>2021-11-06T17:44:26.932Z</time>
      </trkpt>
      <trkpt lat="45.6787" lon="3.09027">
        <ele>692.7</ele>
        <time>2021-11-06T17:44:30.123Z</time>
      </trkpt>
      <trkpt lat="45.67869" lon="3.09022">
        <ele>692.9</ele>
        <time>2021-11-06T17:44:33.315Z</time>
      </trkpt>
      <trkpt lat="45.67889" lon="3.09104">
        <ele>692.5</ele>
        <time>2021-11-06T17:44:36.519Z</time>
      </trkpt>
      <trkpt lat="45.67893" lon="3.09166">
        <ele>688.3</ele>
        <time>2021-11-06T17:44:39.732Z</time>
      </trkpt>
      <trkpt lat="45.67896" lon="3.09186">
        <ele>688</ele>
        <time>2021-11-06T17:44:42.947Z</time>
      </trkpt>
      <trkpt lat="45.67925" lon="3.093">
        <ele>686.8</ele>
        <time>2021-11-06T17:44:46.179Z</time>
      </trkpt>
      <trkpt lat="45.67959" lon="3.09371">
        <ele>685.8</ele>
        <time>2021-11-06T17:44:49.423Z</time>
      </trkpt>
      <trkpt lat="45.67962" lon="3.09396">
        <ele>685</ele>
        <time>2021-11-06T17:44:52.671Z</time>
      </trkpt>
      <trkpt lat="45.67961" lon="3.09476">
        <ele>684.1</ele>
        <time>2021-11-06T17:44:55.930Z</time>
      </trkpt>
      <trkpt lat="45.67957" lon="3.09542">
        <ele>682.4</ele>
        <time>2021-11-06T17:44:59.199Z</time>
      </trkpt>
      <trkpt lat="45.67945" lon="3.09588">
        <ele>680.9</ele>
        <time>2021-11-06T17:45:02.474Z</time>
      </trkpt>
      <trkpt lat="45.67943" lon="3.09602">
        <ele>679.9</ele>
        <time>2021-11-06T17:45:05.751Z</time>
      </trkpt>
      <trkpt lat="45.67939" lon="3.09612">
        <ele>678.9</ele>
        <time>2021-11-06T17:45:09.030Z</time>
      </trkpt>
      <trkpt lat="45.67934" lon="3.09635">
        <ele>679.3</ele>
        <time>2021-11-06T17:45:12.312Z</time>
      </trkpt>
      <trkpt lat="45.67926" lon="3.09652">
        <ele>678.8</ele>
        <time>2021-11-06T17:45:15.597Z</time>
      </trkpt>
      <trkpt lat="45.67925" lon="3.09662">
        <ele>679.1</ele>
        <time>2021-11-06T17:45:18.884Z</time>
      </trkpt>
      <trkpt lat="45.67932" lon="3.09661">
        <ele>679.5</ele>
        <time>2021-11-06T17:45:22.172Z</time>
      </trkpt>
      <trkpt lat="45.67942" lon="3.09669">
        <ele>679.9</ele>
        <time>2021-11-06T17:45:25.462Z</time>
      </trkpt>
      <trkpt lat="45.67946" lon="3.09675">
        <ele>680</ele>
        <time>2021-11-06T17:45:28.754Z</time>
      </trkpt>
      <trkpt lat="45.67949" lon="3.09675">
        <ele>680</ele>
        <time>2021-11-06T17:45:32.046Z</time>
      </trkpt>
      <trkpt lat="45.67953" lon="3.09668">
        <ele>680</ele>
        <time>2021-11-06T17:45:35.339Z</time>
      </trkpt>
      <trkpt lat="45.67957" lon="3.09667">
        <ele>680</ele>
        <time>2021-11-06T17:45:38.633Z</time>
      </trkpt>
      <trkpt lat="45.67965" lon="3.09673">
        <ele>680</ele>
        <time>2021-11-06T17:45:41.929Z</time>
      </trkpt>
      <trkpt lat="45.67972" lon="3.09668">
        <ele>680</ele>
        <time>2021-11-06T17:45:45.227Z</time>
      </trkpt>
      <trkpt lat="45.67981" lon="3.09668">
        <ele>680</ele>
        <time>2021-11-06T17:45:48.526Z</time>
      </trkpt>
      <trkpt lat="45.67986" lon="3.0968">
        <ele>679.8</ele>
        <time>2021-11-06T17:45:51.827Z</time>
      </trkpt>
      <trkpt lat="45.6798" lon="3.09726">
        <ele>679</ele>
        <time>2021-11-06T17:45:55.135Z</time>
      </trkpt>
      <trkpt lat="45.67978" lon="3.09779">
        <ele>678</ele>
        <time>2021-11-06T17:45:58.450Z</time>
      </trkpt>
      <trkpt lat="45.67974" lon="3.09802">
        <ele>677.9</ele>
        <time>2021-11-06T17:46:01.769Z</time>
      </trkpt>
      <trkpt lat="45.67975" lon="3.0981">
        <ele>677.7</ele>
        <time>2021-11-06T17:46:05.089Z</time>
      </trkpt>
      <trkpt lat="45.6797" lon="3.09885">
        <ele>676.3</ele>
        <time>2021-11-06T17:46:08.419Z</time>
      </trkpt>
      <trkpt lat="45.67969" lon="3.0996">
        <ele>675.7</ele>
        <time>2021-11-06T17:46:11.760Z</time>
      </trkpt>
      <trkpt lat="45.6796" lon="3.10032">
        <ele>675.4</ele>
        <time>2021-11-06T17:46:15.111Z</time>
      </trkpt>
      <trkpt lat="45.67956" lon="3.10092">
        <ele>674.6</ele>
        <time>2021-11-06T17:46:18.471Z</time>
      </trkpt>
      <trkpt lat="45.67957" lon="3.10108">
        <ele>674.5</ele>
        <time>2021-11-06T17:46:21.833Z</time>
      </trkpt>
      <trkpt lat="45.67963" lon="3.10144">
        <ele>673.7</ele>
        <time>2021-11-06T17:46:25.200Z</time>
      </trkpt>
      <trkpt lat="45.67979" lon="3.10219">
        <ele>672.8</ele>
        <time>2021-11-06T17:46:28.578Z</time>
      </trkpt>
      <trkpt lat="45.67988" lon="3.10237">
        <ele>672.2</ele>
        <time>2021-11-06T17:46:31.959Z</time>
      </trkpt>
      <trkpt lat="45.68023" lon="3.1036">
        <ele>670</ele>
        <time>2021-11-06T17:46:35.359Z</time>
      </trkpt>
      <trkpt lat="45.68035" lon="3.10427">
        <ele>669</ele>
        <time>2021-11-06T17:46:38.768Z</time>
      </trkpt>
      <trkpt lat="45.68055" lon="3.1047">
        <ele>668.1</ele>
        <time>2021-11-06T17:46:42.185Z</time>
      </trkpt>
      <trkpt lat="45.68063" lon="3.10492">
        <ele>667.3</ele>
        <time>2021-11-06T17:46:45.605Z</time>
      </trkpt>
      <trkpt lat="45.68068" lon="3.10523">
        <ele>666.2</ele>
        <time>2021-11-06T17:46:49.030Z</time>
      </trkpt>
      <trkpt lat="45.68091" lon="3.10583">
        <ele>664</ele>
        <time>2021-11-06T17:46:52.464Z</time>
      </trkpt>
      <trkpt lat="45.68114" lon="3.10653">
        <ele>661.9</ele>
        <time>2021-11-06T17:46:55.909Z</time>
      </trkpt>
      <trkpt lat="45.68121" lon="3.10683">
        <ele>661.3</ele>
        <time>2021-11-06T17:46:59.359Z</time>
      </trkpt>
      <trkpt lat="45.68139" lon="3.10733">
        <ele>660.6</ele>
        <time>2021-11-06T17:47:02.816Z</time>
      </trkpt>
      <trkpt lat="45.68159" lon="3.10813">
        <ele>659</ele>
        <time>2021-11-06T17:47:06.285Z</time>
      </trkpt>
      <trkpt lat="45.68171" lon="3.10848">
        <ele>658.8</ele>
        <time>2021-11-06T17:47:09.760Z</time>
      </trkpt>
      <trkpt lat="45.6818" lon="3.10892">
        <ele>658</ele>
        <time>2021-11-06T17:47:13.241Z</time>
      </trkpt>
      <trkpt lat="45.68189" lon="3.10914">
        <ele>658</ele>
        <time>2021-11-06T17:47:16.726Z</time>
      </trkpt>
      <trkpt lat="45.68205" lon="3.10974">
        <ele>656.6</ele>
        <time>2021-11-06T17:47:20.220Z</time>
      </trkpt>
      <trkpt lat="45.68218" lon="3.11011">
        <ele>657</ele>
        <time>2021-11-06T17:47:23.720Z</time>
      </trkpt>
      <trkpt lat="45.68234" lon="3.11075">
        <ele>656</ele>
        <time>2021-11-06T17:47:27.229Z</time>
      </trkpt>
      <trkpt lat="45.68261" lon="3.11163">
        <ele>655</ele>
        <time>2021-11-06T17:47:30.752Z</time>
      </trkpt>
      <trkpt lat="45.68281" lon="3.11246">
        <ele>653.1</ele>
        <time>2021-11-06T17:47:34.287Z</time>
      </trkpt>
      <trkpt lat="45.68286" lon="3.11256">
        <ele>652.9</ele>
        <time>2021-11-06T17:47:37.824Z</time>
      </trkpt>
      <trkpt lat="45.68296" lon="3.11294">
        <ele>652.1</ele>
        <time>2021-11-06T17:47:41.366Z</time>
      </trkpt>
      <trkpt lat="45.68312" lon="3.11317">
        <ele>651.8</ele>
        <time>2021-11-06T17:47:44.913Z</time>
      </trkpt>
      <trkpt lat="45.68317" lon="3.11329">
        <ele>651.6</ele>
        <time>2021-11-06T17:47:48.462Z</time>
      </trkpt>
      <trkpt lat="45.68324" lon="3.11336">
        <ele>651.3</ele>
        <time>2021-11-06T17:47:52.012Z</time>
      </trkpt>
      <trkpt lat="45.68327" lon="3.11335">
        <ele>651.2</ele>
        <time>2021-11-06T17:47:55.563Z</time>
      </trkpt>
      <trkpt lat="45.68332" lon="3.11329">
        <ele>651</ele>
        <time>2021-11-06T17:47:59.115Z</time>
      </trkpt>
      <trkpt lat="45.68345" lon="3.11323">
        <ele>650</ele>
        <time>2021-11-06T17:48:02.670Z</time>
      </trkpt>
      <trkpt lat="45.6835" lon="3.11324">
        <ele>649.6</ele>
        <time>2021-11-06T17:48:06.226Z</time>
      </trkpt>
      <trkpt lat="45.68354" lon="3.11333">
        <ele>649.5</ele>
        <time>2021-11-06T17:48:09.784Z</time>
      </trkpt>
      <trkpt lat="45.68363" lon="3.11369">
        <ele>648.9</ele>
        <time>2021-11-06T17:48:13.347Z</time>
      </trkpt>
      <trkpt lat="45.68366" lon="3.11399">
        <ele>649.1</ele>
        <time>2021-11-06T17:48:16.914Z</time>
      </trkpt>
      <trkpt lat="45.6838" lon="3.11449">
        <ele>648.6</ele>
        <time>2021-11-06T17:48:20.489Z</time>
      </trkpt>
      <trkpt lat="45.68383" lon="3.11475">
        <ele>648.4</ele>
        <time>2021-11-06T17:48:24.068Z</time>
      </trkpt>
      <trkpt lat="45.68387" lon="3.11495">
        <ele>648.1</ele>
        <time>2021-11-06T17:48:27.649Z</time>
      </trkpt>
      <trkpt lat="45.68413" lon="3.11548">
        <ele>647.8</ele>
        <time>2021-11-06T17:48:31.240Z</time>
      </trkpt>
      <trkpt lat="45.68423" lon="3.11572">
        <ele>646.5</ele>
        <time>2021-11-06T17:48:34.834Z</time>
      </trkpt>
      <trkpt lat="45.68435" lon="3.11618">
        <ele>647</ele>
        <time>2021-11-06T17:48:38.435Z</time>
      </trkpt>
      <trkpt lat="45.68446" lon="3.11666">
        <ele>646.9</ele>
        <time>2021-11-06T17:48:42.043Z</time>
      </trkpt>
      <trkpt lat="45.68485" lon="3.11783">
        <ele>644.2</ele>
        <time>2021-11-06T17:48:45.670Z</time>
      </trkpt>
      <trkpt lat="45.68495" lon="3.11821">
        <ele>643.7</ele>
        <time>2021-11-06T17:48:49.302Z</time>
      </trkpt>
      <trkpt lat="45.68513" lon="3.11928">
        <ele>641.8</ele>
        <time>2021-11-06T17:48:52.950Z</time>
      </trkpt>
      <trkpt lat="45.68516" lon="3.11964">
        <ele>641.4</ele>
        <time>2021-11-06T17:48:56.603Z</time>
      </trkpt>
      <trkpt lat="45.68522" lon="3.11987">
        <ele>640.3</ele>
        <time>2021-11-06T17:49:00.259Z</time>
      </trkpt>
      <trkpt lat="45.68529" lon="3.12006">
        <ele>638.4</ele>
        <time>2021-11-06T17:49:03.918Z</time>
      </trkpt>
      <trkpt lat="45.68532" lon="3.12035">
        <ele>636.2</ele>
        <time>2021-11-06T17:49:07.581Z</time>
      </trkpt>
      <trkpt lat="45.68529" lon="3.12056">
        <ele>636.5</ele>
        <time>2021-11-06T17:49:11.247Z</time>
      </trkpt>
      <trkpt lat="45.68542" lon="3.12114">
        <ele>629.8</ele>
        <time>2021-11-06T17:49:14.922Z</time>
      </trkpt>
      <trkpt lat="45.68543" lon="3.12134">
        <ele>628.6</ele>
        <time>2021-11-06T17:49:18.600Z</time>
      </trkpt>
      <trkpt lat="45.68548" lon="3.12151">
        <ele>625.1</ele>
        <time>2021-11-06T17:49:22.280Z</time>
      </trkpt>
      <trkpt lat="45.68543" lon="3.12212">
        <ele>617.8</ele>
        <time>2021-11-06T17:49:25.969Z</time>
      </trkpt>
      <trkpt lat="45.6853" lon="3.12269">
        <ele>610.3</ele>
        <time>2021-11-06T17:49:29.666Z</time>
      </trkpt>
      <trkpt lat="45.6853" lon="3.12282">
        <ele>607.4</ele>
        <time>2021-11-06T17:49:33.365Z</time>
      </trkpt>
      <trkpt lat="45.68522" lon="3.12311">
        <ele>605.3</ele>
        <time>2021-11-06T17:49:37.068Z</time>
      </trkpt>
      <trkpt lat="45.68513" lon="3.12332">
        <ele>604.9</ele>
        <time>2021-11-06T17:49:40.775Z</time>
      </trkpt>
      <trkpt lat="45.68496" lon="3.12358">
        <ele>605.7</ele>
        <time>2021-11-06T17:49:44.487Z</time>
      </trkpt>
      <trkpt lat="45.68486" lon="3.12369">
        <ele>605.5</ele>
        <time>2021-11-06T17:49:48.201Z</time>
      </trkpt>
      <trkpt lat="45.68477" lon="3.1237">
        <ele>606.5</ele>
        <time>2021-11-06T17:49:51.917Z</time>
      </trkpt>
      <trkpt lat="45.68465" lon="3.12361">
        <ele>606.5</ele>
        <time>2021-11-06T17:49:55.636Z</time>
      </trkpt>
      <trkpt lat="45.68462" lon="3.12362">
        <ele>605.7</ele>
        <time>2021-11-06T17:49:59.356Z</time>
      </trkpt>
      <trkpt lat="45.68461" lon="3.12369">
        <ele>604.5</ele>
        <time>2021-11-06T17:50:03.077Z</time>
      </trkpt>
      <trkpt lat="45.68468" lon="3.12418">
        <ele>599.7</ele>
        <time>2021-11-06T17:50:06.805Z</time>
      </trkpt>
      <trkpt lat="45.68481" lon="3.12477">
        <ele>592.6</ele>
        <time>2021-11-06T17:50:10.541Z</time>
      </trkpt>
      <trkpt lat="45.68506" lon="3.12568">
        <ele>587.3</ele>
        <time>2021-11-06T17:50:14.291Z</time>
      </trkpt>
      <trkpt lat="45.68508" lon="3.12592">
        <ele>586.7</ele>
        <time>2021-11-06T17:50:18.044Z</time>
      </trkpt>
      <trkpt lat="45.68506" lon="3.12619">
        <ele>586.8</ele>
        <time>2021-11-06T17:50:21.801Z</time>
      </trkpt>
      <trkpt lat="45.6851" lon="3.12635">
        <ele>587.7</ele>
        <time>2021-11-06T17:50:25.561Z</time>
      </trkpt>
      <trkpt lat="45.68516" lon="3.1264">
        <ele>588.9</ele>
        <time>2021-11-06T17:50:29.322Z</time>
      </trkpt>
      <trkpt lat="45.68558" lon="3.12636">
        <ele>590.4</ele>
        <time>2021-11-06T17:50:33.091Z</time>
      </trkpt>
      <trkpt lat="45.68576" lon="3.12641">
        <ele>588.2</ele>
        <time>2021-11-06T17:50:36.864Z</time>
      </trkpt>
      <trkpt lat="45.68582" lon="3.12646">
        <ele>587.5</ele>
        <time>2021-11-06T17:50:40.638Z</time>
      </trkpt>
      <trkpt lat="45.68599" lon="3.12676">
        <ele>585.7</ele>
        <time>2021-11-06T17:50:44.418Z</time>
      </trkpt>
      <trkpt lat="45.6862" lon="3.12727">
        <ele>584.9</ele>
        <time>2021-11-06T17:50:48.206Z</time>
      </trkpt>
      <trkpt lat="45.68629" lon="3.12727">
        <ele>583.1</ele>
        <time>2021-11-06T17:50:51.996Z</time>
      </trkpt>
      <trkpt lat="45.68644" lon="3.12715">
        <ele>580.4</ele>
        <time>2021-11-06T17:50:55.789Z</time>
      </trkpt>
      <trkpt lat="45.68662" lon="3.12713">
        <ele>579.3</ele>
        <time>2021-11-06T17:50:59.586Z</time>
      </trkpt>
      <trkpt lat="45.68678" lon="3.12736">
        <ele>578.6</ele>
        <time>2021-11-06T17:51:03.388Z</time>
      </trkpt>
      <trkpt lat="45.68676" lon="3.12753">
        <ele>578.6</ele>
        <time>2021-11-06T17:51:07.192Z</time>
      </trkpt>
      <trkpt lat="45.68688" lon="3.12754">
        <ele>578.1</ele>
        <time>2021-11-06T17:51:10.998Z</time>
      </trkpt>
      <trkpt lat="45.68697" lon="3.12759">
        <ele>577.5</ele>
        <time>2021-11-06T17:51:14.806Z</time>
      </trkpt>
      <trkpt lat="45.687" lon="3.12771">
        <ele>576.8</ele>
        <time>2021-11-06T17:51:18.616Z</time>
      </trkpt>
      <trkpt lat="45.68712" lon="3.12782">
        <ele>575.5</ele>
        <time>2021-11-06T17:51:22.429Z</time>
      </trkpt>
      <trkpt lat="45.68747" lon="3.1278">
        <ele>570.4</ele>
        <time>2021-11-06T17:51:26.249Z</time>
      </trkpt>
      <trkpt lat="45.68753" lon="3.12783">
        <ele>568.6</ele>
        <time>2021-11-06T17:51:30.070Z</time>
      </trkpt>
      <trkpt lat="45.68754" lon="3.12787">
        <ele>568</ele>
        <time>2021-11-06T17:51:33.892Z</time>
      </trkpt>
      <trkpt lat="45.68751" lon="3.12875">
        <ele>562.3</ele>
        <time>2021-11-06T17:51:37.726Z</time>
      </trkpt>
      <trkpt lat="45.68753" lon="3.12889">
        <ele>561.5</ele>
        <time>2021-11-06T17:51:41.562Z</time>
      </trkpt>
      <trkpt lat="45.68756" lon="3.12894">
        <ele>560.7</ele>
        <time>2021-11-06T17:51:45.399Z</time>
      </trkpt>
      <trkpt lat="45.68781" lon="3.12884">
        <ele>556.5</ele>
        <time>2021-11-06T17:51:49.241Z</time>
      </trkpt>
      <trkpt lat="45.68807" lon="3.12879">
        <ele>552.7</ele>
        <time>2021-11-06T17:51:53.088Z</time>
      </trkpt>
      <trkpt lat="45.68815" lon="3.12882">
        <ele>551.3</ele>
        <time>2021-11-06T17:51:56.937Z</time>
      </trkpt>
      <trkpt lat="45.68822" lon="3.1288">
        <ele>550</ele>
        <time>2021-11-06T17:52:00.788Z</time>
      </trkpt>
      <trkpt lat="45.68875" lon="3.12846">
        <ele>540</ele>
        <time>2021-11-06T17:52:04.650Z</time>
      </trkpt>
      <trkpt lat="45.68879" lon="3.12835">
        <ele>539.1</ele>
        <time>2021-11-06T17:52:08.514Z</time>
      </trkpt>
      <trkpt lat="45.68874" lon="3.12802">
        <ele>540.1</ele>
        <time>2021-11-06T17:52:12.383Z</time>
      </trkpt>
      <trkpt lat="45.68868" lon="3.1274">
        <ele>540.3</ele>
        <time>2021-11-06T17:52:16.260Z</time>
      </trkpt>
      <trkpt lat="45.68866" lon="3.12739">
        <ele>540.6</ele>
        <time>2021-11-06T17:52:20.138Z</time>
      </trkpt>
      <trkpt lat="45.68869" lon="3.12747">
        <ele>539.9</ele>
        <time>2021-11-06T17:52:24.017Z</time>
      </trkpt>
      <trkpt lat="45.68912" lon="3.12753">
        <ele>532.8</ele>
        <time>2021-11-06T17:52:27.905Z</time>
      </trkpt>
      <trkpt lat="45.68976" lon="3.12768">
        <ele>521.8</ele>
        <time>2021-11-06T17:52:31.806Z</time>
      </trkpt>
      <trkpt lat="45.68997" lon="3.12768">
        <ele>518.8</ele>
        <time>2021-11-06T17:52:35.711Z</time>
      </trkpt>
      <trkpt lat="45.69079" lon="3.12724">
        <ele>508.5</ele>
        <time>2021-11-06T17:52:39.633Z</time>
      </trkpt>
      <trkpt lat="45.69119" lon="3.12708">
        <ele>504.2</ele>
        <time>2021-11-06T17:52:43.564Z</time>
      </trkpt>
      <trkpt lat="45.69151" lon="3.12689">
        <ele>500.5</ele>
        <time>2021-11-06T17:52:47.502Z</time>
      </trkpt>
      <trkpt lat="45.69209" lon="3.12685">
        <ele>493.2</ele>
        <time>2021-11-06T17:52:51.451Z</time>
      </trkpt>
      <trkpt lat="45.69246" lon="3.12698">
        <ele>488.4</ele>
        <time>2021-11-06T17:52:55.408Z</time>
      </trkpt>
      <trkpt lat="45.6926" lon="3.12695">
        <ele>485.8</ele>
        <time>2021-11-06T17:52:59.368Z</time>
      </trkpt>
      <trkpt lat="45.6936" lon="3.12635">
        <ele>474.3</ele>
        <time>2021-11-06T17:53:03.350Z</time>
      </trkpt>
      <trkpt lat="45.69384" lon="3.12627">
        <ele>472</ele>
        <time>2021-11-06T17:53:07.336Z</time>
      </trkpt>
      <trkpt lat="45.69451" lon="3.12632">
        <ele>466.2</ele>
        <time>2021-11-06T17:53:11.336Z</time>
      </trkpt>
      <trkpt lat="45.69455" lon="3.12638">
        <ele>465.5</ele>
        <time>2021-11-06T17:53:15.337Z</time>
      </trkpt>
      <trkpt lat="45.69427" lon="3.1276">
        <ele>466.6</ele>
        <time>2021-11-06T17:53:19.356Z</time>
      </trkpt>
      <trkpt lat="45.69413" lon="3.12807">
        <ele>468.4</ele>
        <time>2021-11-06T17:53:23.382Z</time>
      </trkpt>
      <trkpt lat="45.69385" lon="3.12873">
        <ele>471.3</ele>
        <time>2021-11-06T17:53:27.419Z</time>
      </trkpt>
      <trkpt lat="45.69378" lon="3.12893">
        <ele>471.7</ele>
        <time>2021-11-06T17:53:31.459Z</time>
      </trkpt>
      <trkpt lat="45.69369" lon="3.12904">
        <ele>472.3</ele>
        <time>2021-11-06T17:53:35.502Z</time>
      </trkpt>
      <trkpt lat="45.6936" lon="3.12927">
        <ele>473.1</ele>
        <time>2021-11-06T17:53:39.548Z</time>
      </trkpt>
      <trkpt lat="45.69361" lon="3.12932">
        <ele>473</ele>
        <time>2021-11-06T17:53:43.595Z</time>
      </trkpt>
      <trkpt lat="45.69366" lon="3.12933">
        <ele>472.6</ele>
        <time>2021-11-06T17:53:47.643Z</time>
      </trkpt>
      <trkpt lat="45.69395" lon="3.12911">
        <ele>469.5</ele>
        <time>2021-11-06T17:53:51.698Z</time>
      </trkpt>
      <trkpt lat="45.69413" lon="3.12907">
        <ele>467.7</ele>
        <time>2021-11-06T17:53:55.756Z</time>
      </trkpt>
      <trkpt lat="45.69441" lon="3.12911">
        <ele>464.6</ele>
        <time>2021-11-06T17:53:59.820Z</time>
      </trkpt>
      <trkpt lat="45.69456" lon="3.12918">
        <ele>462.8</ele>
        <time>2021-11-06T17:54:03.887Z</time>
      </trkpt>
      <trkpt lat="45.6949" lon="3.12944">
        <ele>459.1</ele>
        <time>2021-11-06T17:54:07.962Z</time>
      </trkpt>
      <trkpt lat="45.69492" lon="3.12949">
        <ele>458.7</ele>
        <time>2021-11-06T17:54:12.037Z</time>
      </trkpt>
      <trkpt lat="45.69483" lon="3.13068">
        <ele>458.4</ele>
        <time>2021-11-06T17:54:16.129Z</time>
      </trkpt>
      <trkpt lat="45.69479" lon="3.13157">
        <ele>460</ele>
        <time>2021-11-06T17:54:20.234Z</time>
      </trkpt>
      <trkpt lat="45.69482" lon="3.13214">
        <ele>459.6</ele>
        <time>2021-11-06T17:54:24.347Z</time>
      </trkpt>
      <trkpt lat="45.69482" lon="3.13269">
        <ele>459.2</ele>
        <time>2021-11-06T17:54:28.467Z</time>
      </trkpt>
      <trkpt lat="45.69484" lon="3.13293">
        <ele>458.3</ele>
        <time>2021-11-06T17:54:32.591Z</time>
      </trkpt>
      <trkpt lat="45.69488" lon="3.13293">
        <ele>457.6</ele>
        <time>2021-11-06T17:54:36.716Z</time>
      </trkpt>
      <trkpt lat="45.69535" lon="3.13256">
        <ele>452.2</ele>
        <time>2021-11-06T17:54:40.851Z</time>
      </trkpt>
      <trkpt lat="45.69539" lon="3.13259">
        <ele>451.8</ele>
        <time>2021-11-06T17:54:44.987Z</time>
      </trkpt>
      <trkpt lat="45.69548" lon="3.13277">
        <ele>450.8</ele>
        <time>2021-11-06T17:54:49.126Z</time>
      </trkpt>
      <trkpt lat="45.69558" lon="3.13307">
        <ele>449.6</ele>
        <time>2021-11-06T17:54:53.270Z</time>
      </trkpt>
      <trkpt lat="45.69566" lon="3.13348">
        <ele>448.5</ele>
        <time>2021-11-06T17:54:57.420Z</time>
      </trkpt>
      <trkpt lat="45.69586" lon="3.13404">
        <ele>447.1</ele>
        <time>2021-11-06T17:55:01.579Z</time>
      </trkpt>
      <trkpt lat="45.69602" lon="3.13473">
        <ele>445.7</ele>
        <time>2021-11-06T17:55:05.748Z</time>
      </trkpt>
      <trkpt lat="45.6961" lon="3.13521">
        <ele>445.9</ele>
        <time>2021-11-06T17:55:09.924Z</time>
      </trkpt>
      <trkpt lat="45.69615" lon="3.13557">
        <ele>445.4</ele>
        <time>2021-11-06T17:55:26.683Z</time>
      </trkpt>
      <trkpt lat="45.6961" lon="3.13523">
        <ele>446</ele>
      </trkpt>
      <trkpt lat="45.69615" lon="3.13557">
        <ele>445.4</ele>
        <time>2021-11-06T17:55:26.683Z</time>
      </trkpt>
      <trkpt lat="45.69623" lon="3.13558">
        <ele>444.3</ele>
        <time>2021-11-06T17:55:30.880Z</time>
      </trkpt>
      <trkpt lat="45.69641" lon="3.13549">
        <ele>441.7</ele>
        <time>2021-11-06T17:55:35.081Z</time>
      </trkpt>
      <trkpt lat="45.69659" lon="3.13546">
        <ele>439.1</ele>
        <time>2021-11-06T17:55:39.286Z</time>
      </trkpt>
      <trkpt lat="45.69667" lon="3.13548">
        <ele>437.9</ele>
        <time>2021-11-06T17:55:43.492Z</time>
      </trkpt>
      <trkpt lat="45.69677" lon="3.13545">
        <ele>436.4</ele>
        <time>2021-11-06T17:55:47.700Z</time>
      </trkpt>
      <trkpt lat="45.69683" lon="3.13546">
        <ele>435.4</ele>
        <time>2021-11-06T17:55:51.910Z</time>
      </trkpt>
      <trkpt lat="45.69706" lon="3.13591">
        <ele>431.5</ele>
        <time>2021-11-06T17:55:56.127Z</time>
      </trkpt>
      <trkpt lat="45.69719" lon="3.13601">
        <ele>428.7</ele>
        <time>2021-11-06T17:56:00.347Z</time>
      </trkpt>
      <trkpt lat="45.69738" lon="3.136">
        <ele>424.1</ele>
        <time>2021-11-06T17:56:04.571Z</time>
      </trkpt>
      <trkpt lat="45.69761" lon="3.13602">
        <ele>419.4</ele>
        <time>2021-11-06T17:56:08.800Z</time>
      </trkpt>
      <trkpt lat="45.69777" lon="3.13594">
        <ele>417.1</ele>
        <time>2021-11-06T17:56:13.032Z</time>
      </trkpt>
      <trkpt lat="45.69806" lon="3.13445">
        <ele>415.9</ele>
        <time>2021-11-06T17:56:17.286Z</time>
      </trkpt>
      <trkpt lat="45.69811" lon="3.13315">
        <ele>417</ele>
        <time>2021-11-06T17:56:21.558Z</time>
      </trkpt>
      <trkpt lat="45.69792" lon="3.1315">
        <ele>417.2</ele>
        <time>2021-11-06T17:56:25.854Z</time>
      </trkpt>
      <trkpt lat="45.6979" lon="3.13043">
        <ele>417.1</ele>
        <time>2021-11-06T17:56:30.165Z</time>
      </trkpt>
      <trkpt lat="45.69862" lon="3.13024">
        <ele>418.4</ele>
        <time>2021-11-06T17:56:34.490Z</time>
      </trkpt>
      <trkpt lat="45.69997" lon="3.12851">
        <ele>446.2</ele>
        <time>2021-11-06T17:56:38.851Z</time>
      </trkpt>
      <trkpt lat="45.70054" lon="3.12989">
        <ele>442.7</ele>
        <time>2021-11-06T17:56:43.235Z</time>
      </trkpt>
      <trkpt lat="45.70121" lon="3.13131">
        <ele>436.8</ele>
      </trkpt>
      <trkpt lat="45.70144" lon="3.13311">
        <ele>436.6</ele>
      </trkpt>
      <trkpt lat="45.70179" lon="3.1363">
        <ele>429.8</ele>
      </trkpt>
      <trkpt lat="45.70235" lon="3.13844">
        <ele>421.6</ele>
        <time>2021-11-06T17:56:47.642Z</time>
      </trkpt>
    </trkseg>
  </trk>
</gpx>